Time,TemperatureF,DewpointF,PressureIn,WindDirection,WindDirectionDegrees,WindSpeedMPH,WindSpeedGustMPH,Humidity,HourlyPrecipIn,Conditions,Clouds,dailyrainin,SoftwareType,DateUTC
2013-01-07 00:00:00,45.3,42.3,30.08,WNW,292,0.0,3.1,89,0.02,,,0.08,WUHU21623XXSP,2013-01-07 08:00:00,
2013-01-07 00:03:00,45.3,42.3,30.09,South,180,0.0,5.6,89,0.00,,,0.00,WUHU21623XXSP,2013-01-07 08:03:00,
2013-01-07 00:04:00,45.3,42.3,30.08,SE,135,0.0,5.6,89,0.00,,,0.00,WUHU21623XXSP,2013-01-07 08:04:00,
2013-01-07 00:05:00,45.3,42.3,30.08,South,180,1.3,5.6,89,0.00,,,0.00,WUHU21623XXSP,2013-01-07 08:05:00,
2013-01-07 00:09:00,45.3,42.3,30.08,ESE,112,0.0,5.8,89,0.00,,,0.00,WUHU21623XXSP,2013-01-07 08:09:00,
2013-01-07 00:10:00,45.3,42.3,30.09,SW,225,3.4,5.8,89,0.02,,,0.02,WUHU21623XXSP,2013-01-07 08:10:00,
2013-01-07 00:14:00,45.5,42.8,30.09,SSW,202,0.0,7.4,90,0.02,,,0.02,WUHU21623XXSP,2013-01-07 08:14:00,
2013-01-07 00:15:00,45.5,42.8,30.09,WSW,247,1.6,7.4,90,0.02,,,0.02,WUHU21623XXSP,2013-01-07 08:15:00,
2013-01-07 00:19:00,45.5,42.8,30.09,SE,135,3.8,7.4,90,0.02,,,0.02,WUHU21623XXSP,2013-01-07 08:19:00,
2013-01-07 00:20:00,45.5,42.8,30.09,ESE,112,1.1,7.4,90,0.02,,,0.02,WUHU21623XXSP,2013-01-07 08:20:00,
2013-01-07 00:21:00,45.5,42.8,30.09,East,90,2.7,7.4,90,0.02,,,0.02,WUHU21623XXSP,2013-01-07 08:21:00,
2013-01-07 00:24:00,45.5,42.8,30.09,SSE,157,1.6,3.8,90,0.02,,,0.02,WUHU21623XXSP,2013-01-07 08:24:00,
2013-01-07 00:25:00,45.5,42.8,30.09,SW,225,0.0,3.8,90,0.02,,,0.02,WUHU21623XXSP,2013-01-07 08:25:00,
2013-01-07 00:26:00,45.5,42.8,30.09,SSE,157,0.0,3.8,90,0.02,,,0.02,WUHU21623XXSP,2013-01-07 08:26:00,
2013-01-07 00:29:00,45.5,42.8,30.09,SW,225,3.8,3.8,90,0.02,,,0.02,WUHU21623XXSP,2013-01-07 08:29:00,
2013-01-07 00:30:00,45.5,42.8,30.10,East,90,0.0,3.8,90,0.02,,,0.02,WUHU21623XXSP,2013-01-07 08:30:00,
2013-01-07 00:31:00,45.5,42.8,30.10,SE,135,5.6,5.6,90,0.02,,,0.02,WUHU21623XXSP,2013-01-07 08:31:00,
2013-01-07 00:34:00,45.7,43.0,30.09,ESE,112,0.7,5.6,90,0.02,,,0.02,WUHU21623XXSP,2013-01-07 08:34:00,
2013-01-07 00:35:00,45.7,43.0,30.10,SE,135,0.0,5.6,90,0.02,,,0.02,WUHU21623XXSP,2013-01-07 08:35:00,
2013-01-07 00:36:00,45.7,43.0,30.09,SSE,157,0.0,8.3,90,0.02,,,0.02,WUHU21623XXSP,2013-01-07 08:36:00,
2013-01-07 00:39:00,45.7,43.0,30.09,SW,225,0.0,8.3,90,0.02,,,0.02,WUHU21623XXSP,2013-01-07 08:39:00,
2013-01-07 00:40:00,45.7,43.0,30.08,SSE,157,3.8,8.3,90,0.02,,,0.02,WUHU21623XXSP,2013-01-07 08:40:00,
2013-01-07 00:41:00,45.7,43.0,30.08,SSE,157,1.6,8.3,90,0.02,,,0.02,WUHU21623XXSP,2013-01-07 08:41:00,
2013-01-07 00:44:00,45.7,43.0,30.08,ESE,112,0.0,8.3,90,0.02,,,0.02,WUHU21623XXSP,2013-01-07 08:44:00,
2013-01-07 00:45:00,45.7,43.0,30.09,SSW,202,0.0,8.3,90,0.02,,,0.02,WUHU21623XXSP,2013-01-07 08:45:00,
2013-01-07 00:46:00,45.7,43.0,30.08,SSE,157,6.5,6.5,90,0.04,,,0.02,WUHU21623XXSP,2013-01-07 08:46:00,
2013-01-07 00:50:00,45.7,43.0,30.08,ENE,67,3.1,6.5,90,0.04,,,0.04,WUHU21623XXSP,2013-01-07 08:50:00,
2013-01-07 00:51:00,45.7,43.0,30.08,SE,135,2.0,6.5,90,0.04,,,0.04,WUHU21623XXSP,2013-01-07 08:51:00,
2013-01-07 00:55:00,45.7,43.0,30.07,South,180,3.6,6.9,90,0.04,,,0.04,WUHU21623XXSP,2013-01-07 08:55:00,
2013-01-07 00:56:00,45.7,43.0,30.07,SSE,157,2.9,6.9,90,0.04,,,0.04,WUHU21623XXSP,2013-01-07 08:56:00,
2013-01-07 00:57:00,45.7,43.0,30.07,SE,135,6.3,6.9,90,0.04,,,0.04,WUHU21623XXSP,2013-01-07 08:57:00,
2013-01-07 01:00:00,45.7,43.0,30.07,SE,135,5.1,8.3,90,0.04,,,0.04,WUHU21623XXSP,2013-01-07 09:00:00,
2013-01-07 01:01:00,45.7,43.0,30.07,SE,135,1.8,8.3,90,0.04,,,0.04,WUHU21623XXSP,2013-01-07 09:01:00,
2013-01-07 01:02:00,45.7,43.0,30.07,ESE,112,4.9,8.3,90,0.04,,,0.04,WUHU21623XXSP,2013-01-07 09:02:00,
2013-01-07 01:05:00,45.7,43.0,30.07,SSE,157,0.0,10.3,90,0.04,,,0.04,WUHU21623XXSP,2013-01-07 09:05:00,
2013-01-07 01:06:00,45.7,43.0,30.07,South,180,0.0,10.3,90,0.04,,,0.04,WUHU21623XXSP,2013-01-07 09:06:00,
2013-01-07 01:07:00,45.7,43.0,30.07,SE,135,0.0,10.3,90,0.04,,,0.04,WUHU21623XXSP,2013-01-07 09:07:00,
2013-01-07 01:10:00,45.9,43.2,30.07,SE,135,2.5,10.3,90,0.02,,,0.04,WUHU21623XXSP,2013-01-07 09:10:00,
2013-01-07 01:11:00,45.7,43.0,30.07,ESE,112,3.1,10.3,90,0.02,,,0.04,WUHU21623XXSP,2013-01-07 09:11:00,
2013-01-07 01:12:00,45.9,43.2,30.07,SSE,157,4.5,10.3,90,0.02,,,0.04,WUHU21623XXSP,2013-01-07 09:12:00,
2013-01-07 01:15:00,45.9,43.2,30.08,South,180,0.0,8.7,90,0.02,,,0.04,WUHU21623XXSP,2013-01-07 09:15:00,
2013-01-07 01:16:00,46.0,43.6,30.08,South,180,0.0,8.7,91,0.02,,,0.04,WUHU21623XXSP,2013-01-07 09:16:00,
2013-01-07 01:17:00,46.0,43.6,30.08,ENE,67,2.9,8.7,91,0.02,,,0.04,WUHU21623XXSP,2013-01-07 09:17:00,
2013-01-07 01:20:00,46.0,43.6,30.08,SSE,157,0.0,5.6,91,0.02,,,0.04,WUHU21623XXSP,2013-01-07 09:20:00,
2013-01-07 01:21:00,46.0,43.6,30.08,SSE,157,4.0,5.6,91,0.02,,,0.04,WUHU21623XXSP,2013-01-07 09:21:00,
2013-01-07 01:22:00,46.0,43.6,30.08,SE,135,0.2,5.1,91,0.02,,,0.04,WUHU21623XXSP,2013-01-07 09:22:00,
2013-01-07 01:25:00,46.0,43.6,30.08,SSE,157,0.0,6.0,91,0.02,,,0.04,WUHU21623XXSP,2013-01-07 09:25:00,
2013-01-07 01:26:00,46.0,43.6,30.08,SSE,157,2.5,6.0,91,0.02,,,0.04,WUHU21623XXSP,2013-01-07 09:26:00,
2013-01-07 01:27:00,46.0,43.6,30.08,SSE,157,0.0,6.0,91,0.02,,,0.04,WUHU21623XXSP,2013-01-07 09:27:00,
2013-01-07 01:30:00,46.0,43.6,30.08,South,180,1.6,7.8,91,0.02,,,0.04,WUHU21623XXSP,2013-01-07 09:30:00,
2013-01-07 01:31:00,46.0,43.6,30.08,ENE,67,0.0,7.8,91,0.02,,,0.04,WUHU21623XXSP,2013-01-07 09:31:00,
2013-01-07 01:32:00,46.0,43.6,30.08,WSW,247,5.6,7.8,91,0.02,,,0.04,WUHU21623XXSP,2013-01-07 09:32:00,
2013-01-07 01:35:00,46.0,43.6,30.08,SW,225,4.3,7.8,91,0.02,,,0.04,WUHU21623XXSP,2013-01-07 09:35:00,
2013-01-07 01:36:00,46.0,43.6,30.08,SE,135,5.4,7.8,91,0.02,,,0.04,WUHU21623XXSP,2013-01-07 09:36:00,
2013-01-07 01:37:00,46.0,43.6,30.08,ESE,112,4.9,7.8,91,0.02,,,0.04,WUHU21623XXSP,2013-01-07 09:37:00,
2013-01-07 01:41:00,46.0,43.6,30.09,NE,45,0.0,5.6,91,0.02,,,0.04,WUHU21623XXSP,2013-01-07 09:41:00,
2013-01-07 01:42:00,46.0,43.6,30.09,SE,135,2.5,5.4,91,0.02,,,0.04,WUHU21623XXSP,2013-01-07 09:42:00,
2013-01-07 01:46:00,46.0,43.6,30.09,SSE,157,0.0,6.3,91,0.00,,,0.04,WUHU21623XXSP,2013-01-07 09:46:00,
2013-01-07 01:47:00,46.0,43.6,30.09,SSE,157,7.2,7.2,91,0.00,,,0.04,WUHU21623XXSP,2013-01-07 09:47:00,
2013-01-07 01:51:00,46.2,43.8,30.09,South,180,4.7,7.2,91,0.00,,,0.04,WUHU21623XXSP,2013-01-07 09:51:00,
2013-01-07 01:52:00,46.0,43.6,30.09,SE,135,4.0,7.2,91,0.00,,,0.04,WUHU21623XXSP,2013-01-07 09:52:00,
2013-01-07 01:53:00,46.2,43.8,30.09,SE,135,0.7,7.2,91,0.00,,,0.04,WUHU21623XXSP,2013-01-07 09:53:00,
2013-01-07 01:56:00,46.0,43.6,30.09,ESE,112,1.3,7.2,91,0.02,,,0.06,WUHU21623XXSP,2013-01-07 09:56:00,
2013-01-07 01:57:00,46.2,43.8,30.09,South,180,2.7,7.2,91,0.02,,,0.06,WUHU21623XXSP,2013-01-07 09:57:00,
2013-01-07 01:58:00,46.2,43.8,30.09,SE,135,1.6,5.6,91,0.02,,,0.06,WUHU21623XXSP,2013-01-07 09:58:00,
2013-01-07 02:01:00,46.2,43.8,30.08,SSW,202,6.0,6.0,91,0.02,,,0.06,WUHU21623XXSP,2013-01-07 10:01:00,
2013-01-07 02:02:00,46.2,43.8,30.08,SE,135,0.0,6.0,91,0.02,,,0.06,WUHU21623XXSP,2013-01-07 10:02:00,
2013-01-07 02:03:00,46.2,43.8,30.08,NNW,337,2.7,6.0,91,0.02,,,0.06,WUHU21623XXSP,2013-01-07 10:03:00,
2013-01-07 02:06:00,46.2,43.8,30.07,SE,135,0.0,6.0,91,0.02,,,0.06,WUHU21623XXSP,2013-01-07 10:06:00,
2013-01-07 02:07:00,46.2,43.8,30.07,South,180,0.0,6.0,91,0.02,,,0.06,WUHU21623XXSP,2013-01-07 10:07:00,
2013-01-07 02:08:00,46.2,43.8,30.07,SSE,157,5.6,6.0,91,0.02,,,0.06,WUHU21623XXSP,2013-01-07 10:08:00,
2013-01-07 02:12:00,46.2,43.8,30.07,SSW,202,0.0,8.7,91,0.02,,,0.06,WUHU21623XXSP,2013-01-07 10:12:00,
2013-01-07 02:13:00,46.2,43.8,30.07,South,180,0.0,8.7,91,0.02,,,0.06,WUHU21623XXSP,2013-01-07 10:13:00,
2013-01-07 02:17:00,46.2,43.8,30.08,SE,135,0.0,8.7,91,0.02,,,0.06,WUHU21623XXSP,2013-01-07 10:17:00,
2013-01-07 02:18:00,46.2,43.8,30.08,SSE,157,1.3,8.7,91,0.02,,,0.06,WUHU21623XXSP,2013-01-07 10:18:00,
2013-01-07 02:22:00,46.2,43.8,30.08,SSW,202,0.0,3.8,91,0.02,,,0.06,WUHU21623XXSP,2013-01-07 10:22:00,
2013-01-07 02:23:00,46.2,43.8,30.08,ESE,112,4.7,4.7,91,0.02,,,0.06,WUHU21623XXSP,2013-01-07 10:23:00,
2013-01-07 02:27:00,46.2,43.8,30.08,East,90,0.0,4.9,91,0.02,,,0.06,WUHU21623XXSP,2013-01-07 10:27:00,
2013-01-07 02:28:00,46.2,43.8,30.08,South,180,6.9,6.9,91,0.02,,,0.06,WUHU21623XXSP,2013-01-07 10:28:00,
2013-01-07 02:32:00,46.2,43.8,30.09,SSE,157,0.0,6.9,91,0.02,,,0.06,WUHU21623XXSP,2013-01-07 10:32:00,
2013-01-07 02:33:00,46.2,43.8,30.09,West,270,0.0,7.4,91,0.02,,,0.06,WUHU21623XXSP,2013-01-07 10:33:00,
2013-01-07 02:37:00,46.2,43.8,30.09,ESE,112,4.0,7.4,91,0.02,,,0.06,WUHU21623XXSP,2013-01-07 10:37:00,
2013-01-07 02:38:00,46.4,44.0,30.09,SSW,202,0.0,7.4,91,0.02,,,0.06,WUHU21623XXSP,2013-01-07 10:38:00,
2013-01-07 02:42:00,46.6,44.1,30.10,SSE,157,6.0,7.4,91,0.02,,,0.06,WUHU21623XXSP,2013-01-07 10:42:00,
2013-01-07 02:43:00,46.6,44.1,30.10,South,180,6.5,6.7,91,0.02,,,0.06,WUHU21623XXSP,2013-01-07 10:43:00,
2013-01-07 02:44:00,46.6,44.1,30.09,SSE,157,3.8,6.7,91,0.02,,,0.06,WUHU21623XXSP,2013-01-07 10:44:00,
2013-01-07 02:47:00,46.6,44.1,30.08,SSE,157,1.6,6.7,91,0.02,,,0.06,WUHU21623XXSP,2013-01-07 10:47:00,
2013-01-07 02:48:00,46.6,44.1,30.08,SE,135,5.6,6.7,91,0.02,,,0.06,WUHU21623XXSP,2013-01-07 10:48:00,
2013-01-07 02:49:00,46.6,44.1,30.08,NW,315,7.4,7.4,91,0.02,,,0.06,WUHU21623XXSP,2013-01-07 10:49:00,
2013-01-07 02:52:00,46.6,44.1,30.09,SE,135,8.3,8.3,91,0.02,,,0.06,WUHU21623XXSP,2013-01-07 10:52:00,
2013-01-07 02:53:00,46.6,44.1,30.09,SE,135,1.6,8.3,91,0.00,,,0.06,WUHU21623XXSP,2013-01-07 10:53:00,
2013-01-07 02:54:00,46.6,44.1,30.09,East,90,4.7,8.3,91,0.00,,,0.06,WUHU21623XXSP,2013-01-07 10:54:00,
2013-01-07 02:58:00,46.6,44.1,30.09,ESE,112,5.4,8.3,91,0.00,,,0.06,WUHU21623XXSP,2013-01-07 10:58:00,
2013-01-07 02:59:00,46.6,44.1,30.09,SSE,157,1.3,8.3,91,0.00,,,0.06,WUHU21623XXSP,2013-01-07 10:59:00,
2013-01-07 03:03:00,46.6,44.1,30.08,South,180,0.7,8.3,91,0.02,,,0.08,WUHU21623XXSP,2013-01-07 11:03:00,
2013-01-07 03:04:00,46.6,44.1,30.09,East,90,3.1,8.3,91,0.02,,,0.08,WUHU21623XXSP,2013-01-07 11:04:00,
2013-01-07 03:08:00,46.8,44.3,30.08,West,270,2.5,8.3,91,0.02,,,0.08,WUHU21623XXSP,2013-01-07 11:08:00,
2013-01-07 03:09:00,46.8,44.3,30.08,SE,135,3.1,5.6,91,0.02,,,0.08,WUHU21623XXSP,2013-01-07 11:09:00,
2013-01-07 03:13:00,46.8,44.3,30.08,SSE,157,2.0,6.9,91,0.02,,,0.08,WUHU21623XXSP,2013-01-07 11:13:00,
2013-01-07 03:14:00,46.9,44.5,30.08,SSW,202,0.0,6.9,91,0.02,,,0.08,WUHU21623XXSP,2013-01-07 11:14:00,
2013-01-07 03:18:00,46.9,44.5,30.08,SE,135,0.0,6.9,91,0.02,,,0.08,WUHU21623XXSP,2013-01-07 11:18:00,
2013-01-07 03:19:00,46.9,44.5,30.08,NNW,337,0.0,6.9,91,0.02,,,0.08,WUHU21623XXSP,2013-01-07 11:19:00,
2013-01-07 03:23:00,46.9,44.5,30.07,South,180,1.3,4.9,91,0.02,,,0.08,WUHU21623XXSP,2013-01-07 11:23:00,
2013-01-07 03:24:00,46.9,44.5,30.08,ENE,67,0.0,4.9,91,0.02,,,0.08,WUHU21623XXSP,2013-01-07 11:24:00,
2013-01-07 03:25:00,46.9,44.5,30.07,SSE,157,2.0,7.8,91,0.02,,,0.08,WUHU21623XXSP,2013-01-07 11:25:00,
2013-01-07 03:28:00,46.9,44.5,30.07,SE,135,0.0,7.8,91,0.02,,,0.08,WUHU21623XXSP,2013-01-07 11:28:00,
2013-01-07 03:29:00,47.1,44.7,30.07,SSE,157,0.9,7.8,91,0.02,,,0.08,WUHU21623XXSP,2013-01-07 11:29:00,
2013-01-07 03:30:00,47.1,44.7,30.07,ESE,112,3.8,7.8,91,0.02,,,0.08,WUHU21623XXSP,2013-01-07 11:30:00,
2013-01-07 03:33:00,47.1,44.7,30.07,ESE,112,3.6,11.4,91,0.02,,,0.08,WUHU21623XXSP,2013-01-07 11:33:00,
2013-01-07 03:34:00,47.1,44.7,30.06,SSE,157,2.9,11.4,91,0.02,,,0.08,WUHU21623XXSP,2013-01-07 11:34:00,
2013-01-07 03:35:00,47.1,44.7,30.06,SSE,157,2.9,11.4,91,0.02,,,0.08,WUHU21623XXSP,2013-01-07 11:35:00,
2013-01-07 03:38:00,47.1,44.7,30.06,SW,225,4.3,11.4,91,0.02,,,0.08,WUHU21623XXSP,2013-01-07 11:38:00,
2013-01-07 03:39:00,47.1,44.7,30.07,SE,135,5.4,11.4,91,0.02,,,0.08,WUHU21623XXSP,2013-01-07 11:39:00,
2013-01-07 03:40:00,47.1,44.7,30.07,South,180,7.6,11.4,91,0.02,,,0.08,WUHU21623XXSP,2013-01-07 11:40:00,
2013-01-07 03:41:00,47.1,44.7,30.07,South,180,2.9,11.4,91,0.02,,,0.08,WUHU21623XXSP,2013-01-07 11:41:00,
2013-01-07 03:43:00,47.1,44.7,30.07,SSE,157,0.0,7.6,91,0.04,,,0.10,WUHU21623XXSP,2013-01-07 11:43:00,
2013-01-07 03:45:00,47.1,44.7,30.07,SSE,157,1.6,7.6,91,0.04,,,0.10,WUHU21623XXSP,2013-01-07 11:45:00,
2013-01-07 03:46:00,47.1,44.7,30.07,West,270,3.8,7.6,91,0.04,,,0.10,WUHU21623XXSP,2013-01-07 11:46:00,
2013-01-07 03:48:00,47.1,44.7,30.07,SSE,157,3.4,8.5,91,0.04,,,0.10,WUHU21623XXSP,2013-01-07 11:48:00,
2013-01-07 03:50:00,47.1,44.7,30.07,ESE,112,0.0,8.5,91,0.04,,,0.10,WUHU21623XXSP,2013-01-07 11:50:00,
2013-01-07 03:51:00,47.3,44.9,30.07,SE,135,2.0,8.5,91,0.04,,,0.10,WUHU21623XXSP,2013-01-07 11:51:00,
2013-01-07 03:54:00,47.3,44.9,30.07,SSE,157,0.0,8.5,91,0.04,,,0.10,WUHU21623XXSP,2013-01-07 11:54:00,
2013-01-07 03:55:00,47.3,44.9,30.07,SSE,157,3.8,8.5,91,0.04,,,0.10,WUHU21623XXSP,2013-01-07 11:55:00,
2013-01-07 03:56:00,47.3,44.9,30.07,WSW,247,0.9,10.7,91,0.04,,,0.10,WUHU21623XXSP,2013-01-07 11:56:00,
2013-01-07 03:59:00,47.3,44.9,30.08,SE,135,2.0,10.7,91,0.02,,,0.10,WUHU21623XXSP,2013-01-07 11:59:00,
2013-01-07 04:00:00,47.3,44.9,30.08,SE,135,0.0,10.7,91,0.02,,,0.10,WUHU21623XXSP,2013-01-07 12:00:00,
2013-01-07 04:01:00,47.3,44.9,30.07,West,270,0.0,10.7,91,0.02,,,0.10,WUHU21623XXSP,2013-01-07 12:01:00,
2013-01-07 04:04:00,47.3,44.9,30.07,ENE,67,4.5,10.7,91,0.02,,,0.10,WUHU21623XXSP,2013-01-07 12:04:00,
2013-01-07 04:05:00,47.3,44.9,30.07,SE,135,0.0,10.7,91,0.02,,,0.10,WUHU21623XXSP,2013-01-07 12:05:00,
2013-01-07 04:06:00,47.3,44.9,30.08,South,180,4.3,6.9,91,0.02,,,0.10,WUHU21623XXSP,2013-01-07 12:06:00,
2013-01-07 04:09:00,47.5,45.0,30.08,SW,225,3.4,5.6,91,0.02,,,0.10,WUHU21623XXSP,2013-01-07 12:09:00,
2013-01-07 04:10:00,47.5,45.0,30.07,SE,135,2.2,5.6,91,0.02,,,0.10,WUHU21623XXSP,2013-01-07 12:10:00,
2013-01-07 04:11:00,47.5,45.0,30.07,South,180,6.3,6.3,91,0.02,,,0.10,WUHU21623XXSP,2013-01-07 12:11:00,
2013-01-07 04:14:00,47.5,45.0,30.07,SE,135,0.0,6.3,91,0.02,,,0.10,WUHU21623XXSP,2013-01-07 12:14:00,
2013-01-07 04:15:00,47.5,45.0,30.08,SW,225,8.1,8.1,91,0.02,,,0.10,WUHU21623XXSP,2013-01-07 12:15:00,
2013-01-07 04:16:00,47.5,45.0,30.08,South,180,1.8,8.1,91,0.02,,,0.10,WUHU21623XXSP,2013-01-07 12:16:00,
2013-01-07 04:19:00,47.5,45.0,30.08,South,180,6.3,8.5,91,0.02,,,0.10,WUHU21623XXSP,2013-01-07 12:19:00,
2013-01-07 04:20:00,47.5,45.0,30.07,SSE,157,1.3,8.5,91,0.04,,,0.12,WUHU21623XXSP,2013-01-07 12:20:00,
2013-01-07 04:21:00,47.5,45.0,30.07,East,90,3.6,8.5,91,0.04,,,0.12,WUHU21623XXSP,2013-01-07 12:21:00,
2013-01-07 04:24:00,47.5,45.0,30.07,SE,135,3.8,8.5,91,0.04,,,0.12,WUHU21623XXSP,2013-01-07 12:24:00,
2013-01-07 04:25:00,47.7,45.2,30.07,SSW,202,1.1,10.1,91,0.04,,,0.12,WUHU21623XXSP,2013-01-07 12:25:00,
2013-01-07 04:26:00,47.7,45.2,30.07,SSW,202,0.0,10.1,91,0.04,,,0.12,WUHU21623XXSP,2013-01-07 12:26:00,
2013-01-07 04:27:00,47.7,45.2,30.07,SE,135,0.0,10.1,91,0.04,,,0.12,WUHU21623XXSP,2013-01-07 12:27:00,
2013-01-07 04:29:00,47.7,45.5,30.07,SSE,157,0.0,10.1,92,0.06,,,0.14,WUHU21623XXSP,2013-01-07 12:29:00,
2013-01-07 04:31:00,47.7,45.5,30.07,SE,135,1.8,10.1,92,0.06,,,0.14,WUHU21623XXSP,2013-01-07 12:31:00,
2013-01-07 04:32:00,47.7,45.5,30.07,ESE,112,0.0,10.1,92,0.06,,,0.14,WUHU21623XXSP,2013-01-07 12:32:00,
2013-01-07 04:34:00,47.7,45.5,30.07,SSE,157,4.0,10.1,92,0.06,,,0.14,WUHU21623XXSP,2013-01-07 12:34:00,
2013-01-07 04:36:00,47.7,45.5,30.07,South,180,3.1,10.3,92,0.06,,,0.14,WUHU21623XXSP,2013-01-07 12:36:00,
2013-01-07 04:37:00,47.8,45.7,30.07,SSE,157,5.1,10.3,92,0.06,,,0.14,WUHU21623XXSP,2013-01-07 12:37:00,
2013-01-07 04:39:00,47.8,45.7,30.07,SSW,202,6.0,10.5,92,0.06,,,0.14,WUHU21623XXSP,2013-01-07 12:39:00,
2013-01-07 04:41:00,47.8,45.7,30.07,SW,225,2.9,10.5,92,0.04,,,0.14,WUHU21623XXSP,2013-01-07 12:41:00,
2013-01-07 04:42:00,47.8,45.7,30.07,West,270,4.9,10.5,92,0.04,,,0.14,WUHU21623XXSP,2013-01-07 12:42:00,
2013-01-07 04:44:00,47.8,45.7,30.06,East,90,3.4,10.5,92,0.04,,,0.14,WUHU21623XXSP,2013-01-07 12:44:00,
2013-01-07 04:46:00,47.8,45.7,30.06,South,180,2.0,10.5,92,0.04,,,0.14,WUHU21623XXSP,2013-01-07 12:46:00,
2013-01-07 04:47:00,47.8,45.7,30.06,SE,135,5.1,10.5,92,0.04,,,0.14,WUHU21623XXSP,2013-01-07 12:47:00,
2013-01-07 04:49:00,47.8,45.7,30.07,ESE,112,1.6,10.5,92,0.04,,,0.14,WUHU21623XXSP,2013-01-07 12:49:00,
2013-01-07 04:51:00,47.8,45.7,30.07,SSE,157,1.6,10.7,92,0.04,,,0.14,WUHU21623XXSP,2013-01-07 12:51:00,
2013-01-07 04:52:00,48.0,45.9,30.07,WNW,292,1.3,10.7,92,0.04,,,0.14,WUHU21623XXSP,2013-01-07 12:52:00,
2013-01-07 04:54:00,47.8,45.7,30.07,SW,225,2.0,10.7,92,0.04,,,0.14,WUHU21623XXSP,2013-01-07 12:54:00,
2013-01-07 04:56:00,47.8,45.7,30.06,South,180,2.5,10.7,92,0.04,,,0.14,WUHU21623XXSP,2013-01-07 12:56:00,
2013-01-07 04:57:00,47.8,45.7,30.06,South,180,8.5,10.7,92,0.04,,,0.14,WUHU21623XXSP,2013-01-07 12:57:00,
2013-01-07 04:59:00,48.0,45.9,30.06,ESE,112,1.8,10.7,92,0.04,,,0.14,WUHU21623XXSP,2013-01-07 12:59:00,
2013-01-07 05:01:00,48.0,45.9,30.06,SSE,157,3.6,10.1,92,0.06,,,0.16,WUHU21623XXSP,2013-01-07 13:01:00,
2013-01-07 05:03:00,48.0,45.9,30.06,South,180,6.5,12.3,92,0.06,,,0.16,WUHU21623XXSP,2013-01-07 13:03:00,
2013-01-07 05:04:00,48.0,45.9,30.06,SSE,157,2.0,12.3,92,0.06,,,0.16,WUHU21623XXSP,2013-01-07 13:04:00,
2013-01-07 05:07:00,48.0,45.9,30.06,SW,225,2.0,12.3,92,0.06,,,0.16,WUHU21623XXSP,2013-01-07 13:07:00,
2013-01-07 05:08:00,48.0,45.9,30.06,SSE,157,8.1,12.3,92,0.06,,,0.16,WUHU21623XXSP,2013-01-07 13:08:00,
2013-01-07 05:09:00,48.0,45.9,30.06,SW,225,4.9,12.3,92,0.06,,,0.16,WUHU21623XXSP,2013-01-07 13:09:00,
2013-01-07 05:12:00,48.0,45.9,30.06,ENE,67,2.2,12.3,92,0.06,,,0.16,WUHU21623XXSP,2013-01-07 13:12:00,
2013-01-07 05:13:00,48.0,45.9,30.06,WNW,292,2.0,11.0,92,0.06,,,0.16,WUHU21623XXSP,2013-01-07 13:13:00,
2013-01-07 05:14:00,48.0,45.9,30.06,WSW,247,8.9,11.0,92,0.06,,,0.16,WUHU21623XXSP,2013-01-07 13:14:00,
2013-01-07 05:17:00,48.0,45.9,30.06,SSW,202,0.0,11.0,92,0.04,,,0.16,WUHU21623XXSP,2013-01-07 13:17:00,
2013-01-07 05:18:00,48.0,45.9,30.06,South,180,6.5,8.9,92,0.04,,,0.16,WUHU21623XXSP,2013-01-07 13:18:00,
2013-01-07 05:20:00,48.0,45.9,30.06,SE,135,6.9,8.9,92,0.04,,,0.16,WUHU21623XXSP,2013-01-07 13:20:00,
2013-01-07 05:22:00,48.0,45.9,30.06,WSW,247,0.0,8.9,92,0.04,,,0.16,WUHU21623XXSP,2013-01-07 13:22:00,
2013-01-07 05:23:00,48.0,45.9,30.05,SW,225,1.8,8.9,92,0.04,,,0.16,WUHU21623XXSP,2013-01-07 13:23:00,
2013-01-07 05:25:00,48.0,45.9,30.05,SW,225,3.4,7.6,92,0.02,,,0.16,WUHU21623XXSP,2013-01-07 13:25:00,
2013-01-07 05:27:00,48.0,45.9,30.06,South,180,1.8,8.7,92,0.04,,,0.18,WUHU21623XXSP,2013-01-07 13:27:00,
2013-01-07 05:28:00,48.0,45.9,30.06,SSE,157,8.1,14.3,92,0.04,,,0.18,WUHU21623XXSP,2013-01-07 13:28:00,
2013-01-07 05:30:00,48.0,45.9,30.06,SSW,202,0.0,14.3,92,0.04,,,0.18,WUHU21623XXSP,2013-01-07 13:30:00,
2013-01-07 05:32:00,48.0,45.9,30.06,SSW,202,4.5,14.3,92,0.04,,,0.18,WUHU21623XXSP,2013-01-07 13:32:00,
2013-01-07 05:33:00,48.0,45.9,30.06,West,270,0.0,14.3,92,0.04,,,0.18,WUHU21623XXSP,2013-01-07 13:33:00,
2013-01-07 05:36:00,48.0,45.9,30.06,SE,135,0.0,14.3,92,0.04,,,0.18,WUHU21623XXSP,2013-01-07 13:36:00,
2013-01-07 05:37:00,48.0,45.9,30.06,SE,135,4.7,14.3,92,0.04,,,0.18,WUHU21623XXSP,2013-01-07 13:37:00,
2013-01-07 05:38:00,48.0,45.9,30.06,SSW,202,9.8,13.2,92,0.06,,,0.20,WUHU21623XXSP,2013-01-07 13:38:00,
2013-01-07 05:41:00,48.0,45.9,30.06,South,180,3.6,13.2,92,0.06,,,0.20,WUHU21623XXSP,2013-01-07 13:41:00,
2013-01-07 05:42:00,48.0,45.9,30.06,SW,225,2.9,13.2,92,0.06,,,0.20,WUHU21623XXSP,2013-01-07 13:42:00,
2013-01-07 05:43:00,48.0,45.9,30.06,SSW,202,1.1,13.2,92,0.06,,,0.20,WUHU21623XXSP,2013-01-07 13:43:00,
2013-01-07 05:46:00,48.0,45.9,30.06,WSW,247,2.2,15.2,92,0.08,,,0.22,WUHU21623XXSP,2013-01-07 13:46:00,
2013-01-07 05:47:00,48.2,46.0,30.06,WNW,292,0.7,15.2,92,0.08,,,0.22,WUHU21623XXSP,2013-01-07 13:47:00,
2013-01-07 05:48:00,48.2,46.0,30.06,SW,225,2.7,15.2,92,0.08,,,0.22,WUHU21623XXSP,2013-01-07 13:48:00,
2013-01-07 05:51:00,48.2,46.0,30.06,SW,225,11.0,15.2,92,0.08,,,0.22,WUHU21623XXSP,2013-01-07 13:51:00,
2013-01-07 05:52:00,48.2,46.0,30.06,SW,225,2.5,15.2,92,0.08,,,0.22,WUHU21623XXSP,2013-01-07 13:52:00,
2013-01-07 05:53:00,48.2,46.0,30.07,South,180,1.1,15.2,92,0.08,,,0.22,WUHU21623XXSP,2013-01-07 13:53:00,
2013-01-07 05:56:00,48.4,46.2,30.07,SSE,157,0.0,11.0,92,0.08,,,0.22,WUHU21623XXSP,2013-01-07 13:56:00,
2013-01-07 05:57:00,48.4,46.2,30.07,SW,225,0.7,11.4,92,0.06,,,0.22,WUHU21623XXSP,2013-01-07 13:57:00,
2013-01-07 05:58:00,48.4,46.2,30.07,SW,225,6.5,13.0,92,0.06,,,0.22,WUHU21623XXSP,2013-01-07 13:58:00,
2013-01-07 06:01:00,48.4,46.2,30.07,SSE,157,1.8,13.0,92,0.08,,,0.24,WUHU21623XXSP,2013-01-07 14:01:00,
2013-01-07 06:03:00,48.4,46.2,30.07,SW,225,9.4,13.0,92,0.08,,,0.24,WUHU21623XXSP,2013-01-07 14:03:00,
2013-01-07 06:04:00,48.4,46.2,30.07,South,180,2.0,13.0,92,0.08,,,0.24,WUHU21623XXSP,2013-01-07 14:04:00,
2013-01-07 06:06:00,48.4,46.2,30.07,SSE,157,3.6,13.0,92,0.08,,,0.24,WUHU21623XXSP,2013-01-07 14:06:00,
2013-01-07 06:08:00,48.4,46.2,30.07,ENE,67,3.4,9.4,92,0.08,,,0.24,WUHU21623XXSP,2013-01-07 14:08:00,
2013-01-07 06:09:00,48.4,46.2,30.07,SSE,157,1.8,9.4,92,0.08,,,0.24,WUHU21623XXSP,2013-01-07 14:09:00,
2013-01-07 06:12:00,48.4,46.2,30.07,SSW,202,2.9,9.4,92,0.08,,,0.24,WUHU21623XXSP,2013-01-07 14:12:00,
2013-01-07 06:13:00,48.4,46.2,30.07,SSE,157,1.6,6.5,92,0.10,,,0.24,WUHU21623XXSP,2013-01-07 14:13:00,
2013-01-07 06:14:00,48.4,46.2,30.07,SSE,157,1.3,12.8,92,0.10,,,0.26,WUHU21623XXSP,2013-01-07 14:14:00,
2013-01-07 06:17:00,48.6,46.4,30.08,ESE,112,0.0,12.8,92,0.10,,,0.26,WUHU21623XXSP,2013-01-07 14:17:00,
2013-01-07 06:18:00,48.4,46.2,30.08,SW,225,10.7,12.8,92,0.10,,,0.26,WUHU21623XXSP,2013-01-07 14:18:00,
2013-01-07 06:19:00,48.6,46.3,30.08,SSW,192,4.2,12.8,92,0.10,,,0.26,WUHU21623XXSP,2013-01-07 14:19:00,
2013-01-07 06:22:00,48.6,46.4,30.08,SSE,157,0.9,12.8,92,0.10,,,0.26,WUHU21623XXSP,2013-01-07 14:22:00,
2013-01-07 06:23:00,48.6,46.4,30.08,SSW,202,0.9,12.8,92,0.10,,,0.26,WUHU21623XXSP,2013-01-07 14:23:00,
2013-01-07 06:25:00,48.6,46.4,30.08,SSW,202,4.0,10.7,92,0.08,,,0.26,WUHU21623XXSP,2013-01-07 14:25:00,
2013-01-07 06:27:00,48.6,46.4,30.07,SSW,202,2.9,10.7,92,0.08,,,0.26,WUHU21623XXSP,2013-01-07 14:27:00,
2013-01-07 06:28:00,48.6,46.4,30.07,SW,225,0.0,7.8,92,0.08,,,0.26,WUHU21623XXSP,2013-01-07 14:28:00,
2013-01-07 06:29:00,48.6,46.4,30.07,South,180,6.7,7.8,92,0.08,,,0.26,WUHU21623XXSP,2013-01-07 14:29:00,
2013-01-07 06:30:00,48.6,46.4,30.07,ESE,112,11.9,11.9,92,0.08,,,0.26,WUHU21623XXSP,2013-01-07 14:30:00,
2013-01-07 06:32:00,48.6,46.4,30.07,SSW,202,2.5,11.9,92,0.08,,,0.26,WUHU21623XXSP,2013-01-07 14:32:00,
2013-01-07 06:33:00,48.6,46.4,30.08,SSW,202,3.4,11.9,92,0.08,,,0.26,WUHU21623XXSP,2013-01-07 14:33:00,
2013-01-07 06:34:00,48.6,46.4,30.07,South,180,3.4,11.9,92,0.08,,,0.26,WUHU21623XXSP,2013-01-07 14:34:00,
2013-01-07 06:35:00,48.6,46.4,30.07,SSE,157,5.1,11.9,92,0.08,,,0.26,WUHU21623XXSP,2013-01-07 14:35:00,
2013-01-07 06:37:00,48.6,46.4,30.07,SSE,157,2.0,11.9,92,0.08,,,0.28,WUHU21623XXSP,2013-01-07 14:37:00,
2013-01-07 06:38:00,48.6,46.4,30.07,SSE,157,1.6,11.9,92,0.08,,,0.28,WUHU21623XXSP,2013-01-07 14:38:00,
2013-01-07 06:39:00,48.6,46.4,30.07,South,180,0.0,11.9,92,0.08,,,0.28,WUHU21623XXSP,2013-01-07 14:39:00,
2013-01-07 06:40:00,48.6,46.4,30.07,SW,225,6.9,6.9,92,0.08,,,0.28,WUHU21623XXSP,2013-01-07 14:40:00,
2013-01-07 06:42:00,48.6,46.4,30.07,West,270,2.9,7.4,92,0.08,,,0.28,WUHU21623XXSP,2013-01-07 14:42:00,
2013-01-07 06:43:00,48.6,46.4,30.07,SE,135,3.4,7.4,92,0.08,,,0.28,WUHU21623XXSP,2013-01-07 14:43:00,
2013-01-07 06:44:00,48.7,46.4,30.07,WNW,292,2.0,7.4,92,0.08,,,0.28,WUHU21623XXSP,2013-01-07 14:44:00,
2013-01-07 06:45:00,48.6,46.4,30.07,SSE,157,1.6,7.4,92,0.06,,,0.28,WUHU21623XXSP,2013-01-07 14:45:00,
2013-01-07 06:47:00,48.7,46.5,30.07,SSE,157,2.0,7.4,92,0.06,,,0.28,WUHU21623XXSP,2013-01-07 14:47:00,
2013-01-07 06:48:00,48.7,46.5,30.07,NNE,22,0.0,7.4,92,0.06,,,0.28,WUHU21623XXSP,2013-01-07 14:48:00,
2013-01-07 06:49:00,48.7,46.5,30.07,ESE,112,3.4,7.4,92,0.06,,,0.28,WUHU21623XXSP,2013-01-07 14:49:00,
2013-01-07 06:50:00,48.7,46.5,30.07,West,270,9.2,15.4,92,0.06,,,0.28,WUHU21623XXSP,2013-01-07 14:50:00,
2013-01-07 06:52:00,48.7,46.5,30.07,SSW,202,3.6,15.4,92,0.06,,,0.28,WUHU21623XXSP,2013-01-07 14:52:00,
2013-01-07 06:53:00,48.7,46.5,30.07,South,180,1.3,15.4,92,0.08,,,0.28,WUHU21623XXSP,2013-01-07 14:53:00,
2013-01-07 06:54:00,48.7,46.5,30.08,South,180,2.7,15.4,92,0.08,,,0.30,WUHU21623XXSP,2013-01-07 14:54:00,
2013-01-07 06:56:00,48.7,46.5,30.08,SSW,202,1.1,15.4,92,0.08,,,0.30,WUHU21623XXSP,2013-01-07 14:56:00,
2013-01-07 06:57:00,48.7,46.5,30.08,SSW,202,2.9,15.4,92,0.06,,,0.30,WUHU21623XXSP,2013-01-07 14:57:00,
2013-01-07 06:58:00,48.7,46.5,30.08,West,270,4.5,15.4,92,0.06,,,0.30,WUHU21623XXSP,2013-01-07 14:58:00,
2013-01-07 06:59:00,48.7,46.5,30.08,WSW,247,6.3,15.4,92,0.06,,,0.30,WUHU21623XXSP,2013-01-07 14:59:00,
2013-01-07 07:01:00,48.7,46.5,30.08,SSE,157,2.0,13.2,92,0.06,,,0.30,WUHU21623XXSP,2013-01-07 15:01:00,
2013-01-07 07:03:00,48.7,46.5,30.08,WSW,247,1.3,13.2,92,0.08,,,0.32,WUHU21623XXSP,2013-01-07 15:03:00,
2013-01-07 07:05:00,48.7,46.5,30.08,SW,225,24.2,24.2,92,0.08,,,0.32,WUHU21623XXSP,2013-01-07 15:05:00,
2013-01-07 07:06:00,48.7,46.5,30.08,SSW,202,6.3,24.2,92,0.08,,,0.32,WUHU21623XXSP,2013-01-07 15:06:00,
2013-01-07 07:08:00,48.7,46.5,30.08,SSW,202,0.7,24.2,92,0.08,,,0.32,WUHU21623XXSP,2013-01-07 15:08:00,
2013-01-07 07:10:00,48.7,46.5,30.08,SE,135,1.8,24.2,92,0.08,,,0.34,WUHU21623XXSP,2013-01-07 15:10:00,
2013-01-07 07:11:00,48.7,46.5,30.08,ENE,67,3.1,24.2,92,0.08,,,0.34,WUHU21623XXSP,2013-01-07 15:11:00,
2013-01-07 07:13:00,48.7,46.5,30.07,ESE,112,2.9,24.2,92,0.08,,,0.34,WUHU21623XXSP,2013-01-07 15:13:00,
2013-01-07 07:15:00,48.7,46.5,30.07,SE,135,3.8,6.7,92,0.08,,,0.34,WUHU21623XXSP,2013-01-07 15:15:00,
2013-01-07 07:16:00,48.7,46.5,30.07,South,180,2.0,6.7,92,0.08,,,0.34,WUHU21623XXSP,2013-01-07 15:16:00,
2013-01-07 07:18:00,48.7,46.5,30.07,ESE,112,1.8,9.2,92,0.08,,,0.34,WUHU21623XXSP,2013-01-07 15:18:00,
2013-01-07 07:19:00,48.7,46.5,30.07,East,90,0.0,9.2,92,0.08,,,0.34,WUHU21623XXSP,2013-01-07 15:19:00,
2013-01-07 07:20:00,48.7,46.5,30.07,WSW,247,3.8,9.2,92,0.08,,,0.34,WUHU21623XXSP,2013-01-07 15:20:00,
2013-01-07 07:21:00,48.7,46.5,30.07,South,180,4.7,9.2,92,0.08,,,0.34,WUHU21623XXSP,2013-01-07 15:21:00,
2013-01-07 07:23:00,48.7,46.5,30.07,South,180,1.8,9.2,92,0.10,,,0.36,WUHU21623XXSP,2013-01-07 15:23:00,
2013-01-07 07:24:00,48.7,46.5,30.07,ESE,112,0.0,9.2,92,0.10,,,0.36,WUHU21623XXSP,2013-01-07 15:24:00,
2013-01-07 07:25:00,48.7,46.5,30.07,South,180,5.4,9.2,92,0.10,,,0.36,WUHU21623XXSP,2013-01-07 15:25:00,
2013-01-07 07:26:00,48.7,46.5,30.07,SW,225,3.6,9.2,92,0.10,,,0.36,WUHU21623XXSP,2013-01-07 15:26:00,
2013-01-07 07:28:00,48.7,46.7,30.07,WSW,247,2.0,9.2,92,0.10,,,0.36,WUHU21623XXSP,2013-01-07 15:28:00,
2013-01-07 07:29:00,48.7,46.5,30.08,SE,135,11.2,11.2,92,0.10,,,0.36,WUHU21623XXSP,2013-01-07 15:29:00,
2013-01-07 07:31:00,48.9,46.7,30.08,SSW,202,3.8,11.2,92,0.10,,,0.36,WUHU21623XXSP,2013-01-07 15:31:00,
2013-01-07 07:33:00,48.9,46.7,30.08,West,270,4.0,11.2,92,0.10,,,0.38,WUHU21623XXSP,2013-01-07 15:33:00,
2013-01-07 07:35:00,48.9,46.7,30.08,SE,135,0.0,11.2,92,0.10,,,0.38,WUHU21623XXSP,2013-01-07 15:35:00,
2013-01-07 07:36:00,48.9,46.7,30.08,NW,315,0.0,11.2,92,0.10,,,0.38,WUHU21623XXSP,2013-01-07 15:36:00,
2013-01-07 07:38:00,48.9,46.7,30.08,NNE,22,6.5,11.2,92,0.10,,,0.38,WUHU21623XXSP,2013-01-07 15:38:00,
2013-01-07 07:40:00,48.9,46.7,30.08,SSE,157,3.8,9.8,92,0.10,,,0.38,WUHU21623XXSP,2013-01-07 15:40:00,
2013-01-07 07:41:00,48.9,46.7,30.08,SSW,202,5.6,9.8,92,0.10,,,0.38,WUHU21623XXSP,2013-01-07 15:41:00,
2013-01-07 07:43:00,48.9,46.7,30.08,SW,225,2.0,9.8,92,0.10,,,0.38,WUHU21623XXSP,2013-01-07 15:43:00,
2013-01-07 07:45:00,48.9,46.7,30.08,SW,225,1.3,10.3,92,0.10,,,0.38,WUHU21623XXSP,2013-01-07 15:45:00,
2013-01-07 07:46:00,48.9,46.7,30.09,SW,225,2.0,10.3,92,0.10,,,0.38,WUHU21623XXSP,2013-01-07 15:46:00,
2013-01-07 07:48:00,48.9,46.7,30.09,SW,225,0.4,10.3,92,0.12,,,0.40,WUHU21623XXSP,2013-01-07 15:48:00,
2013-01-07 07:50:00,48.9,46.7,30.09,SSW,202,3.6,10.3,92,0.12,,,0.40,WUHU21623XXSP,2013-01-07 15:50:00,
2013-01-07 07:51:00,48.9,46.7,30.09,West,270,3.4,10.3,92,0.12,,,0.40,WUHU21623XXSP,2013-01-07 15:51:00,
2013-01-07 07:52:00,48.9,46.7,30.09,SSE,157,5.4,10.3,92,0.12,,,0.40,WUHU21623XXSP,2013-01-07 15:52:00,
2013-01-07 07:54:00,48.9,46.7,30.09,South,180,4.5,10.3,92,0.10,,,0.40,WUHU21623XXSP,2013-01-07 15:54:00,
2013-01-07 07:55:00,48.9,46.7,30.09,West,270,9.4,9.4,92,0.10,,,0.40,WUHU21623XXSP,2013-01-07 15:55:00,
2013-01-07 07:56:00,48.9,46.7,30.09,NNW,337,3.6,9.4,92,0.10,,,0.40,WUHU21623XXSP,2013-01-07 15:56:00,
2013-01-07 07:57:00,49.1,46.9,30.09,SW,225,4.0,9.4,92,0.10,,,0.40,WUHU21623XXSP,2013-01-07 15:57:00,
2013-01-07 07:59:00,49.1,46.9,30.09,WSW,247,1.1,9.4,92,0.10,,,0.40,WUHU21623XXSP,2013-01-07 15:59:00,
2013-01-07 08:00:00,49.1,46.9,30.09,SSW,202,8.1,9.4,92,0.10,,,0.40,WUHU21623XXSP,2013-01-07 16:00:00,
2013-01-07 08:01:00,49.1,46.9,30.09,West,270,3.6,9.4,92,0.08,,,0.40,WUHU21623XXSP,2013-01-07 16:01:00,
2013-01-07 08:02:00,49.1,46.9,30.09,South,180,11.9,11.9,92,0.08,,,0.40,WUHU21623XXSP,2013-01-07 16:02:00,
2013-01-07 08:04:00,49.1,46.9,30.10,SE,135,7.8,11.9,92,0.08,,,0.40,WUHU21623XXSP,2013-01-07 16:04:00,
2013-01-07 08:05:00,48.9,46.7,30.10,WSW,247,4.7,11.9,92,0.08,,,0.40,WUHU21623XXSP,2013-01-07 16:05:00,
2013-01-07 08:06:00,48.9,46.7,30.10,South,180,5.4,11.9,92,0.08,,,0.40,WUHU21623XXSP,2013-01-07 16:06:00,
2013-01-07 08:07:00,49.1,46.9,30.10,WSW,247,4.3,11.9,92,0.08,,,0.40,WUHU21623XXSP,2013-01-07 16:07:00,
2013-01-07 08:09:00,49.1,46.9,30.10,WNW,292,11.0,11.9,92,0.06,,,0.40,WUHU21623XXSP,2013-01-07 16:09:00,
2013-01-07 08:10:00,49.1,46.9,30.10,SW,225,12.1,12.5,92,0.06,,,0.40,WUHU21623XXSP,2013-01-07 16:10:00,
2013-01-07 08:11:00,49.1,46.9,30.10,WSW,247,14.3,14.3,92,0.06,,,0.40,WUHU21623XXSP,2013-01-07 16:11:00,
2013-01-07 08:12:00,49.1,47.1,30.11,South,180,4.5,14.3,93,0.08,,,0.43,WUHU21623XXSP,2013-01-07 16:12:00,
2013-01-07 08:14:00,49.1,47.1,30.10,SSW,202,6.9,14.3,93,0.08,,,0.43,WUHU21623XXSP,2013-01-07 16:14:00,
2013-01-07 08:16:00,49.1,47.1,30.10,West,270,7.2,14.3,93,0.08,,,0.43,WUHU21623XXSP,2013-01-07 16:16:00,
2013-01-07 08:17:00,49.1,47.1,30.10,SW,225,5.6,14.3,93,0.08,,,0.43,WUHU21623XXSP,2013-01-07 16:17:00,
2013-01-07 08:20:00,49.1,47.1,30.11,South,180,1.8,14.3,93,0.08,,,0.43,WUHU21623XXSP,2013-01-07 16:20:00,
2013-01-07 08:21:00,49.1,47.1,30.11,SSW,202,1.8,14.3,93,0.06,,,0.43,WUHU21623XXSP,2013-01-07 16:21:00,
2013-01-07 08:22:00,49.1,47.1,30.11,NNW,337,0.0,13.6,93,0.06,,,0.43,WUHU21623XXSP,2013-01-07 16:22:00,
2013-01-07 08:25:00,49.1,47.1,30.11,WSW,247,11.0,12.1,93,0.06,,,0.43,WUHU21623XXSP,2013-01-07 16:25:00,
2013-01-07 08:26:00,49.1,47.3,30.11,SE,135,6.7,12.1,93,0.06,,,0.43,WUHU21623XXSP,2013-01-07 16:26:00,
2013-01-07 08:27:00,49.1,47.1,30.11,WSW,247,8.1,12.1,93,0.06,,,0.43,WUHU21623XXSP,2013-01-07 16:27:00,
2013-01-07 08:28:00,49.1,47.1,30.11,West,270,4.0,11.0,93,0.06,,,0.43,WUHU21623XXSP,2013-01-07 16:28:00,
2013-01-07 08:30:00,49.3,47.3,30.11,SW,225,9.6,11.0,93,0.06,,,0.43,WUHU21623XXSP,2013-01-07 16:30:00,
2013-01-07 08:31:00,49.3,47.1,30.11,SW,225,6.9,11.0,93,0.06,,,0.43,WUHU21623XXSP,2013-01-07 16:31:00,
2013-01-07 08:32:00,49.3,47.3,30.11,SSW,202,0.0,11.0,93,0.06,,,0.43,WUHU21623XXSP,2013-01-07 16:32:00,
2013-01-07 08:33:00,49.3,47.3,30.11,SSE,157,4.0,18.6,93,0.04,,,0.43,WUHU21623XXSP,2013-01-07 16:33:00,
2013-01-07 08:35:00,49.3,47.3,30.11,WSW,247,9.6,18.6,93,0.04,,,0.43,WUHU21623XXSP,2013-01-07 16:35:00,
2013-01-07 08:36:00,49.3,47.3,30.11,SW,225,4.3,18.6,93,0.04,,,0.43,WUHU21623XXSP,2013-01-07 16:36:00,
2013-01-07 08:37:00,49.3,47.3,30.11,West,270,2.7,18.6,93,0.04,,,0.43,WUHU21623XXSP,2013-01-07 16:37:00,
2013-01-07 08:38:00,49.3,47.3,30.11,WSW,247,1.8,18.6,93,0.04,,,0.43,WUHU21623XXSP,2013-01-07 16:38:00,
2013-01-07 08:40:00,49.3,47.3,30.11,South,180,3.1,18.6,93,0.04,,,0.43,WUHU21623XXSP,2013-01-07 16:40:00,
2013-01-07 08:41:00,49.3,47.3,30.11,WSW,247,3.1,18.6,93,0.04,,,0.43,WUHU21623XXSP,2013-01-07 16:41:00,
2013-01-07 08:42:00,49.3,47.3,30.11,SSE,157,3.6,11.2,93,0.04,,,0.43,WUHU21623XXSP,2013-01-07 16:42:00,
2013-01-07 08:43:00,49.3,47.3,30.11,ESE,112,0.0,11.2,93,0.04,,,0.43,WUHU21623XXSP,2013-01-07 16:43:00,
2013-01-07 08:45:00,49.3,47.3,30.11,SW,225,7.8,10.7,93,0.02,,,0.43,WUHU21623XXSP,2013-01-07 16:45:00,
2013-01-07 08:46:00,49.3,47.3,30.11,WSW,247,3.1,10.7,93,0.02,,,0.43,WUHU21623XXSP,2013-01-07 16:46:00,
2013-01-07 08:47:00,49.3,47.3,30.11,South,180,0.7,10.7,93,0.02,,,0.43,WUHU21623XXSP,2013-01-07 16:47:00,
2013-01-07 08:48:00,49.3,47.3,30.11,South,180,0.0,11.9,93,0.02,,,0.43,WUHU21623XXSP,2013-01-07 16:48:00,
2013-01-07 08:50:00,49.3,47.3,30.11,WSW,247,3.1,11.9,93,0.02,,,0.43,WUHU21623XXSP,2013-01-07 16:50:00,
2013-01-07 08:51:00,49.3,47.3,30.11,SW,225,4.9,11.9,93,0.02,,,0.43,WUHU21623XXSP,2013-01-07 16:51:00,
2013-01-07 08:52:00,49.3,47.3,30.11,WSW,247,4.0,11.9,93,0.02,,,0.43,WUHU21623XXSP,2013-01-07 16:52:00,
2013-01-07 08:53:00,49.3,47.3,30.12,West,270,13.2,13.2,93,0.02,,,0.43,WUHU21623XXSP,2013-01-07 16:53:00,
2013-01-07 08:55:00,49.3,47.3,30.12,SSW,202,6.9,13.2,93,0.02,,,0.43,WUHU21623XXSP,2013-01-07 16:55:00,
2013-01-07 08:56:00,49.3,47.3,30.12,South,180,6.0,13.2,93,0.02,,,0.43,WUHU21623XXSP,2013-01-07 16:56:00,
2013-01-07 08:57:00,49.3,47.3,30.12,SSW,202,6.3,13.2,93,0.02,,,0.43,WUHU21623XXSP,2013-01-07 16:57:00,
2013-01-07 08:58:00,49.3,47.3,30.12,ESE,112,1.3,13.2,93,0.02,,,0.43,WUHU21623XXSP,2013-01-07 16:58:00,
2013-01-07 09:00:00,49.3,47.3,30.12,SE,135,2.2,13.2,93,0.04,,,0.45,WUHU21623XXSP,2013-01-07 17:00:00,
2013-01-07 09:01:00,49.3,47.3,30.13,WSW,247,3.6,13.2,93,0.04,,,0.45,WUHU21623XXSP,2013-01-07 17:01:00,
2013-01-07 09:03:00,49.3,47.3,30.13,SW,225,2.7,13.2,93,0.04,,,0.45,WUHU21623XXSP,2013-01-07 17:03:00,
2013-01-07 09:05:00,49.3,47.3,30.13,South,180,1.8,10.3,93,0.04,,,0.45,WUHU21623XXSP,2013-01-07 17:05:00,
2013-01-07 09:06:00,49.3,47.3,30.13,South,180,2.7,13.0,93,0.04,,,0.45,WUHU21623XXSP,2013-01-07 17:06:00,
2013-01-07 09:08:00,49.3,47.3,30.13,South,180,0.7,13.0,93,0.04,,,0.45,WUHU21623XXSP,2013-01-07 17:08:00,
2013-01-07 09:11:00,49.3,47.3,30.13,SW,214,3.7,13.0,93,0.02,,,0.45,WUHU21623XXSP,2013-01-07 17:11:00,
2013-01-07 09:13:00,49.3,47.3,30.13,West,270,0.0,13.0,93,0.02,,,0.45,WUHU21623XXSP,2013-01-07 17:13:00,
2013-01-07 09:16:00,49.3,47.3,30.13,SSW,202,2.7,11.2,93,0.02,,,0.45,WUHU21623XXSP,2013-01-07 17:16:00,
2013-01-07 09:18:00,49.3,47.3,30.13,SSW,202,6.9,11.2,93,0.02,,,0.45,WUHU21623XXSP,2013-01-07 17:18:00,
2013-01-07 09:21:00,49.5,47.5,30.13,SSW,202,4.7,11.2,93,0.04,,,0.47,WUHU21623XXSP,2013-01-07 17:21:00,
2013-01-07 09:23:00,49.6,47.6,30.13,South,180,0.7,7.8,93,0.04,,,0.47,WUHU21623XXSP,2013-01-07 17:23:00,
2013-01-07 09:27:00,49.6,47.6,30.13,SE,135,8.3,8.3,93,0.04,,,0.47,WUHU21623XXSP,2013-01-07 17:27:00,
2013-01-07 09:28:00,49.6,47.6,30.13,SE,135,1.1,13.0,93,0.04,,,0.47,WUHU21623XXSP,2013-01-07 17:28:00,
2013-01-07 09:32:00,49.6,47.6,30.13,SSW,202,1.8,13.0,93,0.04,,,0.47,WUHU21623XXSP,2013-01-07 17:32:00,
2013-01-07 09:33:00,49.6,47.6,30.13,WSW,247,6.5,13.0,93,0.04,,,0.47,WUHU21623XXSP,2013-01-07 17:33:00,
2013-01-07 09:34:00,49.6,47.6,30.13,SSW,202,1.1,13.0,93,0.04,,,0.47,WUHU21623XXSP,2013-01-07 17:34:00,
2013-01-07 09:37:00,49.6,47.6,30.13,SSW,202,0.0,13.0,93,0.04,,,0.47,WUHU21623XXSP,2013-01-07 17:37:00,
2013-01-07 09:38:00,49.6,47.6,30.13,WSW,247,3.6,6.5,93,0.04,,,0.47,WUHU21623XXSP,2013-01-07 17:38:00,
2013-01-07 09:39:00,49.6,47.6,30.13,SSW,202,13.2,13.2,93,0.04,,,0.47,WUHU21623XXSP,2013-01-07 17:39:00,
2013-01-07 09:42:00,49.6,47.6,30.13,SSE,157,0.0,13.2,93,0.04,,,0.47,WUHU21623XXSP,2013-01-07 17:42:00,
2013-01-07 09:43:00,49.6,47.6,30.13,SW,225,4.3,13.2,93,0.04,,,0.47,WUHU21623XXSP,2013-01-07 17:43:00,
2013-01-07 09:44:00,49.6,47.6,30.13,SSW,202,3.6,13.2,93,0.04,,,0.47,WUHU21623XXSP,2013-01-07 17:44:00,
2013-01-07 09:47:00,49.6,47.6,30.13,WSW,247,3.4,13.2,93,0.04,,,0.47,WUHU21623XXSP,2013-01-07 17:47:00,
2013-01-07 09:48:00,49.6,47.6,30.13,SE,135,4.3,13.2,93,0.04,,,0.47,WUHU21623XXSP,2013-01-07 17:48:00,
2013-01-07 09:49:00,49.6,47.6,30.13,South,180,2.9,7.2,93,0.04,,,0.47,WUHU21623XXSP,2013-01-07 17:49:00,
2013-01-07 09:52:00,49.8,47.8,30.14,SW,225,7.2,17.4,93,0.04,,,0.47,WUHU21623XXSP,2013-01-07 17:52:00,
2013-01-07 09:53:00,49.6,47.6,30.14,South,180,1.1,17.4,93,0.04,,,0.47,WUHU21623XXSP,2013-01-07 17:53:00,
2013-01-07 09:54:00,49.6,47.6,30.14,West,270,2.2,17.4,93,0.04,,,0.47,WUHU21623XXSP,2013-01-07 17:54:00,
2013-01-07 09:57:00,49.8,47.8,30.15,SSW,202,2.9,17.4,93,0.04,,,0.49,WUHU21623XXSP,2013-01-07 17:57:00,
2013-01-07 09:58:00,49.8,47.8,30.15,SW,225,2.9,17.4,93,0.04,,,0.49,WUHU21623XXSP,2013-01-07 17:58:00,
2013-01-07 09:59:00,49.8,47.8,30.15,SW,225,2.9,17.4,93,0.04,,,0.49,WUHU21623XXSP,2013-01-07 17:59:00,
2013-01-07 10:02:00,49.8,47.8,30.15,SE,135,0.0,11.4,93,0.04,,,0.49,WUHU21623XXSP,2013-01-07 18:02:00,
2013-01-07 10:03:00,49.8,47.8,30.15,SSW,202,2.2,11.0,93,0.04,,,0.49,WUHU21623XXSP,2013-01-07 18:03:00,
2013-01-07 10:04:00,49.8,47.8,30.15,SW,225,0.0,7.6,93,0.04,,,0.49,WUHU21623XXSP,2013-01-07 18:04:00,
2013-01-07 10:07:00,49.8,47.8,30.15,SW,225,2.2,6.7,93,0.06,,,0.51,WUHU21623XXSP,2013-01-07 18:07:00,
2013-01-07 10:08:00,49.8,47.8,30.15,SSW,202,0.0,6.7,93,0.06,,,0.51,WUHU21623XXSP,2013-01-07 18:08:00,
2013-01-07 10:09:00,49.8,47.8,30.15,SW,225,0.7,6.7,93,0.06,,,0.51,WUHU21623XXSP,2013-01-07 18:09:00,
2013-01-07 10:13:00,49.8,47.8,30.15,SW,225,0.0,6.7,93,0.06,,,0.51,WUHU21623XXSP,2013-01-07 18:13:00,
2013-01-07 10:14:00,49.8,47.8,30.15,East,90,1.6,6.7,93,0.06,,,0.51,WUHU21623XXSP,2013-01-07 18:14:00,
2013-01-07 10:15:00,49.8,47.8,30.15,South,180,4.0,7.4,93,0.06,,,0.51,WUHU21623XXSP,2013-01-07 18:15:00,
2013-01-07 10:18:00,49.8,47.8,30.16,West,270,0.0,9.8,93,0.06,,,0.53,WUHU21623XXSP,2013-01-07 18:18:00,
2013-01-07 10:19:00,49.8,47.8,30.16,SSW,202,0.0,9.8,93,0.06,,,0.53,WUHU21623XXSP,2013-01-07 18:19:00,
2013-01-07 10:20:00,49.8,47.8,30.15,WNW,292,4.0,9.8,93,0.06,,,0.53,WUHU21623XXSP,2013-01-07 18:20:00,
2013-01-07 10:23:00,49.8,47.8,30.16,SE,135,0.0,17.2,93,0.06,,,0.53,WUHU21623XXSP,2013-01-07 18:23:00,
2013-01-07 10:24:00,49.8,47.8,30.16,South,180,1.6,17.2,93,0.06,,,0.53,WUHU21623XXSP,2013-01-07 18:24:00,
2013-01-07 10:25:00,49.8,47.8,30.16,SSW,202,2.5,17.2,93,0.06,,,0.53,WUHU21623XXSP,2013-01-07 18:25:00,
2013-01-07 10:28:00,50.0,48.0,30.16,WSW,247,2.9,17.2,93,0.06,,,0.53,WUHU21623XXSP,2013-01-07 18:28:00,
2013-01-07 10:29:00,50.0,48.0,30.16,SSW,202,3.4,17.2,93,0.06,,,0.53,WUHU21623XXSP,2013-01-07 18:29:00,
2013-01-07 10:30:00,50.2,48.2,30.16,SW,225,0.0,17.2,93,0.06,,,0.53,WUHU21623XXSP,2013-01-07 18:30:00,
2013-01-07 10:33:00,50.2,48.2,30.16,West,270,5.4,5.4,93,0.08,,,0.53,WUHU21623XXSP,2013-01-07 18:33:00,
2013-01-07 10:34:00,50.2,48.2,30.16,SSW,202,4.0,5.4,93,0.08,,,0.55,WUHU21623XXSP,2013-01-07 18:34:00,
2013-01-07 10:35:00,50.2,48.2,30.16,SSW,202,0.0,10.3,93,0.08,,,0.55,WUHU21623XXSP,2013-01-07 18:35:00,
2013-01-07 10:39:00,50.2,48.2,30.16,SSW,202,3.1,10.3,93,0.08,,,0.55,WUHU21623XXSP,2013-01-07 18:39:00,
2013-01-07 10:40:00,50.2,48.2,30.16,WNW,292,2.0,10.3,93,0.08,,,0.55,WUHU21623XXSP,2013-01-07 18:40:00,
2013-01-07 10:44:00,50.4,48.3,30.16,WSW,247,4.7,10.3,93,0.08,,,0.55,WUHU21623XXSP,2013-01-07 18:44:00,
2013-01-07 10:45:00,50.4,48.3,30.16,SSW,202,0.9,8.1,93,0.08,,,0.55,WUHU21623XXSP,2013-01-07 18:45:00,
2013-01-07 10:49:00,50.4,48.3,30.17,SW,225,3.6,6.5,93,0.08,,,0.55,WUHU21623XXSP,2013-01-07 18:49:00,
2013-01-07 10:50:00,50.4,48.3,30.17,SSW,202,4.9,6.5,93,0.08,,,0.55,WUHU21623XXSP,2013-01-07 18:50:00,
2013-01-07 10:54:00,50.5,48.5,30.17,WSW,247,2.5,6.5,93,0.06,,,0.55,WUHU21623XXSP,2013-01-07 18:54:00,
2013-01-07 10:55:00,50.5,48.5,30.17,WSW,247,0.0,6.5,93,0.06,,,0.55,WUHU21623XXSP,2013-01-07 18:55:00,
2013-01-07 10:59:00,50.7,48.7,30.16,South,180,0.0,7.8,93,0.06,,,0.55,WUHU21623XXSP,2013-01-07 18:59:00,
2013-01-07 11:00:00,50.7,48.7,30.16,SW,225,2.7,7.8,93,0.06,,,0.55,WUHU21623XXSP,2013-01-07 19:00:00,
2013-01-07 11:04:00,50.7,48.7,30.17,WSW,247,2.5,7.8,93,0.08,,,0.57,WUHU21623XXSP,2013-01-07 19:04:00,
2013-01-07 11:05:00,50.7,48.7,30.17,SSW,202,3.4,7.8,93,0.06,,,0.57,WUHU21623XXSP,2013-01-07 19:05:00,
2013-01-07 11:09:00,50.7,48.7,30.17,WSW,247,3.4,7.4,93,0.06,,,0.57,WUHU21623XXSP,2013-01-07 19:09:00,
2013-01-07 11:10:00,50.7,48.7,30.17,SW,225,7.4,7.4,93,0.06,,,0.57,WUHU21623XXSP,2013-01-07 19:10:00,
2013-01-07 11:14:00,50.9,48.9,30.17,WSW,247,2.0,9.2,93,0.04,,,0.57,WUHU21623XXSP,2013-01-07 19:14:00,
2013-01-07 11:15:00,50.9,48.9,30.17,SSW,202,0.9,9.2,93,0.04,,,0.57,WUHU21623XXSP,2013-01-07 19:15:00,
2013-01-07 11:19:00,51.1,49.1,30.17,WSW,247,2.7,9.2,93,0.06,,,0.59,WUHU21623XXSP,2013-01-07 19:19:00,
2013-01-07 11:20:00,51.1,49.1,30.17,SSW,202,2.9,9.2,93,0.06,,,0.59,WUHU21623XXSP,2013-01-07 19:20:00,
2013-01-07 11:21:00,51.1,49.1,30.17,West,270,0.0,7.4,93,0.06,,,0.59,WUHU21623XXSP,2013-01-07 19:21:00,
2013-01-07 11:24:00,51.1,49.1,30.16,WSW,247,1.3,6.9,93,0.06,,,0.59,WUHU21623XXSP,2013-01-07 19:24:00,
2013-01-07 11:25:00,51.1,49.1,30.16,WSW,247,4.7,6.9,93,0.06,,,0.59,WUHU21623XXSP,2013-01-07 19:25:00,
2013-01-07 11:26:00,51.1,49.1,30.16,WSW,247,4.7,6.9,93,0.06,,,0.59,WUHU21623XXSP,2013-01-07 19:26:00,
2013-01-07 11:29:00,51.3,49.2,30.16,SSE,157,1.6,10.1,93,0.06,,,0.59,WUHU21623XXSP,2013-01-07 19:29:00,
2013-01-07 11:30:00,51.1,49.1,30.16,West,270,2.9,10.1,93,0.06,,,0.59,WUHU21623XXSP,2013-01-07 19:30:00,
2013-01-07 11:31:00,51.1,49.1,30.16,WSW,247,5.1,10.1,93,0.06,,,0.59,WUHU21623XXSP,2013-01-07 19:31:00,
2013-01-07 11:35:00,51.1,49.1,30.16,WSW,247,13.9,13.9,93,0.04,,,0.59,WUHU21623XXSP,2013-01-07 19:35:00,
2013-01-07 11:36:00,51.1,49.1,30.17,SW,225,2.7,13.9,93,0.04,,,0.59,WUHU21623XXSP,2013-01-07 19:36:00,
2013-01-07 11:40:00,51.1,49.1,30.16,SW,225,4.3,13.9,93,0.04,,,0.59,WUHU21623XXSP,2013-01-07 19:40:00,
2013-01-07 11:41:00,51.1,49.1,30.16,WSW,247,0.7,13.9,93,0.04,,,0.59,WUHU21623XXSP,2013-01-07 19:41:00,
2013-01-07 11:45:00,51.1,49.1,30.17,West,270,4.0,6.9,93,0.06,,,0.61,WUHU21623XXSP,2013-01-07 19:45:00,
2013-01-07 11:46:00,51.1,49.1,30.17,WSW,247,0.0,6.9,93,0.06,,,0.61,WUHU21623XXSP,2013-01-07 19:46:00,
2013-01-07 11:50:00,51.1,49.1,30.17,West,270,3.8,8.9,93,0.06,,,0.61,WUHU21623XXSP,2013-01-07 19:50:00,
2013-01-07 11:51:00,51.1,49.1,30.17,SW,225,4.7,8.9,93,0.06,,,0.61,WUHU21623XXSP,2013-01-07 19:51:00,
2013-01-07 11:55:00,51.1,49.1,30.17,WSW,247,0.7,8.9,93,0.06,,,0.61,WUHU21623XXSP,2013-01-07 19:55:00,
2013-01-07 11:56:00,51.1,49.1,30.17,WSW,247,4.0,8.9,93,0.06,,,0.61,WUHU21623XXSP,2013-01-07 19:56:00,
2013-01-07 11:57:00,51.1,49.1,30.17,West,270,2.0,8.9,93,0.06,,,0.61,WUHU21623XXSP,2013-01-07 19:57:00,
2013-01-07 12:00:00,51.1,49.1,30.16,WNW,292,0.0,8.1,93,0.06,,,0.61,WUHU21623XXSP,2013-01-07 20:00:00,
2013-01-07 12:01:00,51.1,49.1,30.17,South,180,3.6,10.5,93,0.04,,,0.61,WUHU21623XXSP,2013-01-07 20:01:00,
2013-01-07 12:02:00,51.1,49.1,30.17,West,270,0.0,10.5,93,0.04,,,0.61,WUHU21623XXSP,2013-01-07 20:02:00,
2013-01-07 12:05:00,51.1,49.1,30.16,WSW,247,4.0,10.5,93,0.04,,,0.61,WUHU21623XXSP,2013-01-07 20:05:00,
2013-01-07 12:06:00,51.1,49.1,30.16,West,270,3.1,10.5,93,0.04,,,0.61,WUHU21623XXSP,2013-01-07 20:06:00,
2013-01-07 12:07:00,51.1,49.1,30.16,WSW,247,1.8,10.5,93,0.04,,,0.61,WUHU21623XXSP,2013-01-07 20:07:00,
2013-01-07 12:10:00,51.1,49.1,30.16,West,270,0.0,10.5,93,0.04,,,0.61,WUHU21623XXSP,2013-01-07 20:10:00,
2013-01-07 12:11:00,51.1,49.1,30.16,SSW,202,2.2,8.9,93,0.04,,,0.61,WUHU21623XXSP,2013-01-07 20:11:00,
2013-01-07 12:12:00,51.1,49.1,30.16,WSW,247,5.4,8.9,93,0.04,,,0.61,WUHU21623XXSP,2013-01-07 20:12:00,
2013-01-07 12:16:00,51.1,49.1,30.16,West,270,0.0,8.9,93,0.04,,,0.61,WUHU21623XXSP,2013-01-07 20:16:00,
2013-01-07 12:17:00,51.1,49.1,30.17,WSW,247,0.0,8.9,93,0.02,,,0.61,WUHU21623XXSP,2013-01-07 20:17:00,
2013-01-07 12:19:00,51.1,49.1,30.17,SW,225,6.7,6.7,93,0.02,,,0.61,WUHU21623XXSP,2013-01-07 20:19:00,
2013-01-07 12:21:00,51.1,49.1,30.17,SSE,157,2.9,6.7,93,0.02,,,0.61,WUHU21623XXSP,2013-01-07 20:21:00,
2013-01-07 12:22:00,51.1,49.1,30.16,WSW,247,4.0,6.7,93,0.02,,,0.61,WUHU21623XXSP,2013-01-07 20:22:00,
2013-01-07 12:24:00,51.1,49.1,30.16,SW,225,0.0,6.7,93,0.02,,,0.61,WUHU21623XXSP,2013-01-07 20:24:00,
2013-01-07 12:26:00,50.9,48.9,30.16,SW,225,1.8,6.7,93,0.02,,,0.61,WUHU21623XXSP,2013-01-07 20:26:00,
2013-01-07 12:27:00,50.9,48.9,30.16,SW,225,2.5,6.7,93,0.02,,,0.61,WUHU21623XXSP,2013-01-07 20:27:00,
2013-01-07 12:29:00,50.9,48.9,30.16,SW,225,2.7,6.5,93,0.02,,,0.61,WUHU21623XXSP,2013-01-07 20:29:00,
2013-01-07 12:31:00,50.9,48.9,30.16,SW,225,5.8,5.8,93,0.02,,,0.61,WUHU21623XXSP,2013-01-07 20:31:00,
2013-01-07 12:32:00,50.9,48.9,30.16,SW,225,3.8,5.8,93,0.02,,,0.61,WUHU21623XXSP,2013-01-07 20:32:00,
2013-01-07 12:33:00,50.9,48.9,30.16,West,270,0.0,5.8,93,0.02,,,0.61,WUHU21623XXSP,2013-01-07 20:33:00,
2013-01-07 12:34:00,50.9,48.9,30.16,SW,225,4.7,9.2,93,0.02,,,0.61,WUHU21623XXSP,2013-01-07 20:34:00,
2013-01-07 12:36:00,50.9,48.9,30.16,SSW,202,3.8,9.2,93,0.02,,,0.61,WUHU21623XXSP,2013-01-07 20:36:00,
2013-01-07 12:37:00,50.9,48.9,30.16,WSW,247,6.7,9.2,93,0.02,,,0.61,WUHU21623XXSP,2013-01-07 20:37:00,
2013-01-07 12:38:00,50.9,48.9,30.16,WSW,247,2.2,9.2,93,0.02,,,0.61,WUHU21623XXSP,2013-01-07 20:38:00,
2013-01-07 12:40:00,50.9,48.9,30.16,WSW,247,0.7,9.2,93,0.02,,,0.61,WUHU21623XXSP,2013-01-07 20:40:00,
2013-01-07 12:41:00,50.9,48.9,30.16,SSW,202,2.7,9.2,93,0.00,,,0.61,WUHU21623XXSP,2013-01-07 20:41:00,
2013-01-07 12:42:00,50.9,48.9,30.16,WSW,247,5.1,9.2,93,0.00,,,0.61,WUHU21623XXSP,2013-01-07 20:42:00,
2013-01-07 12:43:00,50.9,48.9,30.16,South,180,2.2,9.2,93,0.00,,,0.61,WUHU21623XXSP,2013-01-07 20:43:00,
2013-01-07 12:45:00,50.9,48.9,30.16,West,270,2.5,6.9,93,0.00,,,0.61,WUHU21623XXSP,2013-01-07 20:45:00,
2013-01-07 12:46:00,50.9,48.9,30.16,SW,225,0.0,6.9,93,0.00,,,0.61,WUHU21623XXSP,2013-01-07 20:46:00,
2013-01-07 12:47:00,50.9,48.9,30.16,WSW,247,3.6,6.9,93,0.00,,,0.61,WUHU21623XXSP,2013-01-07 20:47:00,
2013-01-07 12:48:00,50.9,48.9,30.16,SW,225,9.8,9.8,93,0.00,,,0.61,WUHU21623XXSP,2013-01-07 20:48:00,
2013-01-07 12:50:00,50.9,48.9,30.16,SSW,202,3.4,9.8,93,0.00,,,0.61,WUHU21623XXSP,2013-01-07 20:50:00,
2013-01-07 12:52:00,50.9,48.9,30.16,WSW,247,7.4,9.8,93,0.00,,,0.61,WUHU21623XXSP,2013-01-07 20:52:00,
2013-01-07 12:53:00,50.9,48.9,30.16,WSW,247,2.7,9.8,93,0.00,,,0.61,WUHU21623XXSP,2013-01-07 20:53:00,
2013-01-07 12:55:00,50.9,48.9,30.16,SW,225,2.2,9.8,93,0.00,,,0.61,WUHU21623XXSP,2013-01-07 20:55:00,
2013-01-07 12:57:00,50.9,48.9,30.16,West,270,1.3,9.8,93,0.00,,,0.61,WUHU21623XXSP,2013-01-07 20:57:00,
2013-01-07 12:58:00,50.9,48.9,30.16,SW,225,3.6,9.8,93,0.00,,,0.61,WUHU21623XXSP,2013-01-07 20:58:00,
2013-01-07 13:00:00,51.1,49.1,30.16,West,270,3.4,7.4,93,0.00,,,0.61,WUHU21623XXSP,2013-01-07 21:00:00,
2013-01-07 13:02:00,51.1,49.1,30.16,SW,225,3.8,11.0,93,0.00,,,0.61,WUHU21623XXSP,2013-01-07 21:02:00,
2013-01-07 13:03:00,51.1,49.1,30.16,South,180,2.2,11.0,93,0.00,,,0.61,WUHU21623XXSP,2013-01-07 21:03:00,
2013-01-07 13:05:00,51.1,49.1,30.16,WSW,247,3.6,11.0,93,0.00,,,0.61,WUHU21623XXSP,2013-01-07 21:05:00,
2013-01-07 13:07:00,50.9,48.9,30.16,WSW,247,4.5,11.0,93,0.00,,,0.61,WUHU21623XXSP,2013-01-07 21:07:00,
2013-01-07 13:08:00,50.9,48.9,30.16,West,270,1.3,11.0,93,0.00,,,0.61,WUHU21623XXSP,2013-01-07 21:08:00,
2013-01-07 13:10:00,50.9,48.9,30.15,WSW,247,1.6,11.0,93,0.00,,,0.61,WUHU21623XXSP,2013-01-07 21:10:00,
2013-01-07 13:12:00,50.9,48.9,30.15,SSW,202,5.8,8.7,93,0.00,,,0.61,WUHU21623XXSP,2013-01-07 21:12:00,
2013-01-07 13:13:00,50.9,48.9,30.15,West,270,0.0,8.7,93,0.00,,,0.61,WUHU21623XXSP,2013-01-07 21:13:00,
2013-01-07 13:15:00,50.9,48.9,30.15,SW,225,2.9,8.7,93,0.00,,,0.61,WUHU21623XXSP,2013-01-07 21:15:00,
2013-01-07 13:18:00,50.9,48.9,30.16,West,270,1.8,8.7,93,0.00,,,0.61,WUHU21623XXSP,2013-01-07 21:18:00,
2013-01-07 13:20:00,50.9,48.9,30.16,SW,225,6.5,8.7,93,0.02,,,0.61,WUHU21623XXSP,2013-01-07 21:20:00,
2013-01-07 13:23:00,50.9,48.9,30.16,SW,225,1.1,8.7,93,0.02,,,0.63,WUHU21623XXSP,2013-01-07 21:23:00,
2013-01-07 13:26:00,50.9,48.9,30.16,SW,225,1.6,7.8,93,0.02,,,0.63,WUHU21623XXSP,2013-01-07 21:26:00,
2013-01-07 13:28:00,50.9,48.9,30.16,West,270,3.1,7.8,93,0.02,,,0.63,WUHU21623XXSP,2013-01-07 21:28:00,
2013-01-07 13:29:00,50.7,48.7,30.16,WSW,247,0.0,7.8,93,0.02,,,0.63,WUHU21623XXSP,2013-01-07 21:29:00,
2013-01-07 13:31:00,50.9,48.7,30.16,SW,225,0.0,7.8,93,0.02,,,0.63,WUHU21623XXSP,2013-01-07 21:31:00,
2013-01-07 13:33:00,50.7,48.7,30.16,SW,225,2.2,7.8,93,0.02,,,0.63,WUHU21623XXSP,2013-01-07 21:33:00,
2013-01-07 13:34:00,50.7,48.7,30.16,WSW,247,0.0,7.8,93,0.02,,,0.63,WUHU21623XXSP,2013-01-07 21:34:00,
2013-01-07 13:36:00,50.9,48.9,30.16,SW,225,1.8,5.4,93,0.02,,,0.63,WUHU21623XXSP,2013-01-07 21:36:00,
2013-01-07 13:38:00,50.9,48.9,30.16,SW,225,2.0,5.4,93,0.02,,,0.63,WUHU21623XXSP,2013-01-07 21:38:00,
2013-01-07 13:39:00,50.9,48.9,30.16,West,270,0.0,5.4,93,0.02,,,0.63,WUHU21623XXSP,2013-01-07 21:39:00,
2013-01-07 13:41:00,50.9,48.9,30.16,SW,225,2.2,5.4,93,0.02,,,0.63,WUHU21623XXSP,2013-01-07 21:41:00,
2013-01-07 13:43:00,50.9,48.9,30.16,SW,225,0.0,4.5,93,0.02,,,0.63,WUHU21623XXSP,2013-01-07 21:43:00,
2013-01-07 13:44:00,50.9,48.9,30.16,SW,225,0.0,4.5,93,0.02,,,0.63,WUHU21623XXSP,2013-01-07 21:44:00,
2013-01-07 13:46:00,50.9,48.9,30.16,WSW,247,2.9,3.6,93,0.02,,,0.63,WUHU21623XXSP,2013-01-07 21:46:00,
2013-01-07 13:48:00,50.9,48.9,30.16,WSW,247,0.0,3.8,93,0.02,,,0.63,WUHU21623XXSP,2013-01-07 21:48:00,
2013-01-07 13:49:00,50.9,48.9,30.16,WSW,247,0.0,3.8,93,0.02,,,0.63,WUHU21623XXSP,2013-01-07 21:49:00,
2013-01-07 13:52:00,50.9,48.9,30.16,SW,225,3.8,4.0,93,0.02,,,0.63,WUHU21623XXSP,2013-01-07 21:52:00,
2013-01-07 13:53:00,50.9,48.9,30.17,SSW,202,1.1,4.0,93,0.02,,,0.63,WUHU21623XXSP,2013-01-07 21:53:00,
2013-01-07 13:54:00,50.9,48.9,30.16,WSW,247,8.7,8.7,93,0.02,,,0.63,WUHU21623XXSP,2013-01-07 21:54:00,
2013-01-07 13:55:00,50.9,48.9,30.16,SSW,202,1.1,8.7,93,0.02,,,0.63,WUHU21623XXSP,2013-01-07 21:55:00,
2013-01-07 13:57:00,51.1,49.1,30.16,WSW,247,0.0,8.7,93,0.02,,,0.63,WUHU21623XXSP,2013-01-07 21:57:00,
2013-01-07 13:58:00,50.9,48.9,30.17,SW,225,0.0,8.7,93,0.02,,,0.63,WUHU21623XXSP,2013-01-07 21:58:00,
2013-01-07 13:59:00,50.9,48.9,30.17,WSW,247,2.9,8.7,93,0.02,,,0.63,WUHU21623XXSP,2013-01-07 21:59:00,
2013-01-07 14:00:00,50.9,48.9,30.17,WSW,247,3.4,8.7,93,0.02,,,0.63,WUHU21623XXSP,2013-01-07 22:00:00,
2013-01-07 14:02:00,50.9,48.9,30.17,SW,225,4.0,8.7,93,0.02,,,0.63,WUHU21623XXSP,2013-01-07 22:02:00,
2013-01-07 14:03:00,51.1,49.1,30.17,SSW,202,0.0,8.7,93,0.02,,,0.63,WUHU21623XXSP,2013-01-07 22:03:00,
2013-01-07 14:04:00,51.1,49.1,30.17,WSW,247,3.8,5.8,93,0.02,,,0.63,WUHU21623XXSP,2013-01-07 22:04:00,
2013-01-07 14:05:00,51.1,49.1,30.17,SW,225,5.8,5.8,93,0.02,,,0.63,WUHU21623XXSP,2013-01-07 22:05:00,
2013-01-07 14:07:00,51.1,49.1,30.18,WSW,247,2.5,5.8,93,0.02,,,0.63,WUHU21623XXSP,2013-01-07 22:07:00,
2013-01-07 14:08:00,51.1,49.1,30.17,SW,225,0.0,5.8,93,0.02,,,0.63,WUHU21623XXSP,2013-01-07 22:08:00,
2013-01-07 14:09:00,50.9,48.9,30.17,South,180,0.0,5.8,93,0.02,,,0.63,WUHU21623XXSP,2013-01-07 22:09:00,
2013-01-07 14:10:00,50.9,48.9,30.17,WSW,247,0.0,5.8,93,0.02,,,0.63,WUHU21623XXSP,2013-01-07 22:10:00,
2013-01-07 14:12:00,50.9,48.9,30.17,WSW,247,1.3,5.8,93,0.02,,,0.63,WUHU21623XXSP,2013-01-07 22:12:00,
2013-01-07 14:13:00,51.1,49.1,30.17,SW,225,0.0,5.8,93,0.02,,,0.63,WUHU21623XXSP,2013-01-07 22:13:00,
2013-01-07 14:14:00,51.1,49.1,30.17,SW,225,3.1,5.8,93,0.02,,,0.63,WUHU21623XXSP,2013-01-07 22:14:00,
2013-01-07 14:15:00,51.1,49.1,30.17,WSW,247,3.1,4.5,93,0.02,,,0.63,WUHU21623XXSP,2013-01-07 22:15:00,
2013-01-07 14:17:00,50.9,48.9,30.18,WSW,247,2.2,5.1,93,0.00,,,0.63,WUHU21623XXSP,2013-01-07 22:17:00,
2013-01-07 14:19:00,50.9,48.9,30.18,WSW,247,1.8,5.1,93,0.00,,,0.63,WUHU21623XXSP,2013-01-07 22:19:00,
2013-01-07 14:20:00,51.1,49.1,30.18,SW,225,1.8,5.1,93,0.00,,,0.63,WUHU21623XXSP,2013-01-07 22:20:00,
2013-01-07 14:22:00,50.9,48.9,30.18,WSW,247,2.7,5.1,93,0.00,,,0.63,WUHU21623XXSP,2013-01-07 22:22:00,
2013-01-07 14:24:00,50.9,48.9,30.18,SSW,202,0.0,5.1,93,0.00,,,0.63,WUHU21623XXSP,2013-01-07 22:24:00,
2013-01-07 14:25:00,50.9,48.9,30.17,SSW,202,0.0,4.5,93,0.00,,,0.63,WUHU21623XXSP,2013-01-07 22:25:00,
2013-01-07 14:27:00,50.9,48.9,30.18,SW,225,3.1,4.5,93,0.00,,,0.63,WUHU21623XXSP,2013-01-07 22:27:00,
2013-01-07 14:29:00,50.9,48.9,30.17,WSW,247,0.0,4.3,93,0.00,,,0.63,WUHU21623XXSP,2013-01-07 22:29:00,
2013-01-07 14:31:00,50.9,48.9,30.18,SW,225,0.0,3.8,93,0.00,,,0.63,WUHU21623XXSP,2013-01-07 22:31:00,
2013-01-07 14:32:00,51.1,49.1,30.18,SW,225,0.0,3.8,93,0.00,,,0.63,WUHU21623XXSP,2013-01-07 22:32:00,
2013-01-07 14:34:00,51.1,49.1,30.17,SSW,202,0.0,3.8,93,0.00,,,0.63,WUHU21623XXSP,2013-01-07 22:34:00,
2013-01-07 14:36:00,51.1,49.1,30.18,WSW,247,0.0,3.8,93,0.00,,,0.63,WUHU21623XXSP,2013-01-07 22:36:00,
2013-01-07 14:38:00,51.1,49.1,30.18,SSE,157,0.0,3.8,93,0.00,,,0.63,WUHU21623XXSP,2013-01-07 22:38:00,
2013-01-07 14:40:00,51.3,49.2,30.18,WSW,247,0.0,3.8,93,0.00,,,0.63,WUHU21623XXSP,2013-01-07 22:40:00,
2013-01-07 14:41:00,51.3,49.2,30.18,WSW,247,0.0,3.8,93,0.00,,,0.63,WUHU21623XXSP,2013-01-07 22:41:00,
2013-01-07 14:43:00,51.3,49.2,30.18,SW,225,2.0,3.6,93,0.00,,,0.63,WUHU21623XXSP,2013-01-07 22:43:00,
2013-01-07 14:45:00,51.4,49.4,30.18,WSW,247,0.0,3.6,93,0.00,,,0.63,WUHU21623XXSP,2013-01-07 22:45:00,
2013-01-07 14:46:00,51.4,49.4,30.18,WSW,247,0.0,3.6,93,0.00,,,0.63,WUHU21623XXSP,2013-01-07 22:46:00,
2013-01-07 14:48:00,51.4,49.4,30.19,SW,225,2.9,3.6,93,0.00,,,0.63,WUHU21623XXSP,2013-01-07 22:48:00,
2013-01-07 14:50:00,51.4,49.4,30.19,WSW,247,0.0,3.6,93,0.00,,,0.63,WUHU21623XXSP,2013-01-07 22:50:00,
2013-01-07 14:51:00,51.3,49.2,30.19,SW,225,1.3,4.0,93,0.00,,,0.63,WUHU21623XXSP,2013-01-07 22:51:00,
2013-01-07 14:53:00,51.4,49.4,30.19,West,270,0.0,4.0,93,0.00,,,0.63,WUHU21623XXSP,2013-01-07 22:53:00,
2013-01-07 14:55:00,51.3,49.2,30.19,WSW,247,1.8,4.0,93,0.00,,,0.63,WUHU21623XXSP,2013-01-07 22:55:00,
2013-01-07 14:56:00,51.3,49.2,30.19,WSW,247,0.0,4.0,93,0.00,,,0.63,WUHU21623XXSP,2013-01-07 22:56:00,
2013-01-07 14:58:00,51.3,49.2,30.19,SW,225,1.6,4.0,93,0.00,,,0.63,WUHU21623XXSP,2013-01-07 22:58:00,
2013-01-07 15:00:00,51.3,49.2,30.19,WSW,247,1.8,4.0,93,0.00,,,0.63,WUHU21623XXSP,2013-01-07 23:00:00,
2013-01-07 15:01:00,51.1,49.1,30.19,SW,225,0.0,2.9,93,0.00,,,0.63,WUHU21623XXSP,2013-01-07 23:01:00,
2013-01-07 15:03:00,51.1,49.1,30.19,West,270,0.0,2.9,93,0.00,,,0.63,WUHU21623XXSP,2013-01-07 23:03:00,
2013-01-07 15:06:00,51.3,49.2,30.20,WSW,247,0.0,2.9,93,0.00,,,0.63,WUHU21623XXSP,2013-01-07 23:06:00,
2013-01-07 15:08:00,51.1,49.1,30.20,WSW,247,0.0,2.9,93,0.00,,,0.63,WUHU21623XXSP,2013-01-07 23:08:00,
2013-01-07 15:11:00,51.3,49.1,30.19,SSW,202,1.1,2.9,93,0.00,,,0.63,WUHU21623XXSP,2013-01-07 23:11:00,
2013-01-07 15:13:00,51.1,49.1,30.19,SW,225,3.8,3.8,93,0.00,,,0.63,WUHU21623XXSP,2013-01-07 23:13:00,
2013-01-07 15:16:00,51.3,49.2,30.19,WSW,247,0.0,3.8,93,0.00,,,0.63,WUHU21623XXSP,2013-01-07 23:16:00,
2013-01-07 15:18:00,51.1,49.1,30.19,SW,225,0.0,3.8,93,0.00,,,0.63,WUHU21623XXSP,2013-01-07 23:18:00,
2013-01-07 15:21:00,51.3,49.2,30.19,SW,225,0.0,3.8,93,0.00,,,0.63,WUHU21623XXSP,2013-01-07 23:21:00,
2013-01-07 15:23:00,51.1,49.1,30.19,WNW,292,0.7,2.7,93,0.00,,,0.63,WUHU21623XXSP,2013-01-07 23:23:00,
2013-01-07 15:26:00,51.1,49.1,30.19,NW,315,0.0,2.7,93,0.00,,,0.63,WUHU21623XXSP,2013-01-07 23:26:00,
2013-01-07 15:28:00,51.1,49.1,30.20,West,270,2.2,2.7,93,0.00,,,0.63,WUHU21623XXSP,2013-01-07 23:28:00,
2013-01-07 15:31:00,51.1,49.1,30.19,SW,225,0.0,2.2,93,0.00,,,0.63,WUHU21623XXSP,2013-01-07 23:31:00,
2013-01-07 15:32:00,51.3,49.2,30.19,SW,225,1.1,2.2,93,0.00,,,0.63,WUHU21623XXSP,2013-01-07 23:32:00,
2013-01-07 15:33:00,51.3,49.2,30.19,SW,225,2.0,2.2,93,0.00,,,0.63,WUHU21623XXSP,2013-01-07 23:33:00,
2013-01-07 15:36:00,51.1,49.1,30.19,WSW,247,0.7,2.9,93,0.00,,,0.63,WUHU21623XXSP,2013-01-07 23:36:00,
2013-01-07 15:37:00,51.1,49.1,30.19,West,270,0.9,2.9,93,0.00,,,0.63,WUHU21623XXSP,2013-01-07 23:37:00,
2013-01-07 15:38:00,51.1,49.1,30.19,SW,225,2.5,2.9,93,0.00,,,0.63,WUHU21623XXSP,2013-01-07 23:38:00,
2013-01-07 15:41:00,51.3,49.2,30.19,SSW,202,2.2,2.9,93,0.00,,,0.63,WUHU21623XXSP,2013-01-07 23:41:00,
2013-01-07 15:42:00,51.1,49.1,30.19,WSW,247,0.0,5.1,93,0.00,,,0.63,WUHU21623XXSP,2013-01-07 23:42:00,
2013-01-07 15:43:00,51.1,49.1,30.19,South,180,2.7,5.1,93,0.00,,,0.63,WUHU21623XXSP,2013-01-07 23:43:00,
2013-01-07 15:46:00,51.1,49.1,30.19,SSW,202,4.9,5.1,93,0.00,,,0.63,WUHU21623XXSP,2013-01-07 23:46:00,
2013-01-07 15:47:00,51.1,49.1,30.19,SSW,202,1.6,5.1,93,0.00,,,0.63,WUHU21623XXSP,2013-01-07 23:47:00,
2013-01-07 15:48:00,51.1,49.1,30.19,West,270,2.2,5.1,93,0.00,,,0.63,WUHU21623XXSP,2013-01-07 23:48:00,
2013-01-07 15:49:00,51.1,49.1,30.19,WSW,247,2.0,5.1,93,0.00,,,0.63,WUHU21623XXSP,2013-01-07 23:49:00,
2013-01-07 15:51:00,51.1,49.1,30.20,SSW,202,0.0,5.1,93,0.00,,,0.63,WUHU21623XXSP,2013-01-07 23:51:00,
2013-01-07 15:52:00,51.1,49.1,30.20,SSW,202,0.0,5.1,93,0.00,,,0.63,WUHU21623XXSP,2013-01-07 23:52:00,
2013-01-07 15:53:00,50.9,48.9,30.20,WSW,247,0.0,5.1,93,0.00,,,0.63,WUHU21623XXSP,2013-01-07 23:53:00,
2013-01-07 15:54:00,50.9,48.9,30.20,SSW,202,0.0,5.1,93,0.00,,,0.63,WUHU21623XXSP,2013-01-07 23:54:00,
2013-01-07 15:56:00,51.1,49.1,30.20,SW,225,3.4,4.0,93,0.00,,,0.63,WUHU21623XXSP,2013-01-07 23:56:00,
2013-01-07 15:57:00,51.1,49.1,30.20,West,270,3.8,4.0,93,0.00,,,0.63,WUHU21623XXSP,2013-01-07 23:57:00,
2013-01-07 15:58:00,50.9,48.9,30.20,SW,225,0.9,4.0,93,0.00,,,0.63,WUHU21623XXSP,2013-01-07 23:58:00,
2013-01-07 15:59:00,50.9,48.9,30.20,SSW,202,0.0,4.0,93,0.00,,,0.63,WUHU21623XXSP,2013-01-07 23:59:00,
2013-01-07 16:02:00,50.9,48.9,30.20,SW,225,2.5,4.0,93,0.00,,,0.63,WUHU21623XXSP,2013-01-08 00:02:00,
2013-01-07 16:03:00,50.9,48.9,30.20,SSW,202,0.0,4.0,93,0.00,,,0.63,WUHU21623XXSP,2013-01-08 00:03:00,
2013-01-07 16:04:00,50.9,48.9,30.19,West,270,0.0,4.0,93,0.00,,,0.63,WUHU21623XXSP,2013-01-08 00:04:00,
2013-01-07 16:07:00,50.9,48.9,30.19,SSW,202,0.7,3.8,93,0.00,,,0.63,WUHU21623XXSP,2013-01-08 00:07:00,
2013-01-07 16:08:00,50.7,48.7,30.19,SSW,202,0.0,3.1,93,0.00,,,0.63,WUHU21623XXSP,2013-01-08 00:08:00,
2013-01-07 16:09:00,50.9,48.9,30.19,SW,225,2.5,6.3,93,0.00,,,0.63,WUHU21623XXSP,2013-01-08 00:09:00,
2013-01-07 16:12:00,50.9,48.9,30.19,SW,225,1.1,6.3,93,0.00,,,0.63,WUHU21623XXSP,2013-01-08 00:12:00,
2013-01-07 16:13:00,50.7,48.7,30.19,SW,225,0.0,6.3,93,0.00,,,0.63,WUHU21623XXSP,2013-01-08 00:13:00,
2013-01-07 16:14:00,50.7,48.7,30.19,SW,225,2.2,6.3,93,0.00,,,0.63,WUHU21623XXSP,2013-01-08 00:14:00,
2013-01-07 16:17:00,50.7,48.7,30.20,WSW,247,0.0,6.3,93,0.00,,,0.63,WUHU21623XXSP,2013-01-08 00:17:00,
2013-01-07 16:18:00,50.7,48.7,30.20,WSW,247,0.7,6.3,93,0.00,,,0.63,WUHU21623XXSP,2013-01-08 00:18:00,
2013-01-07 16:20:00,50.7,48.7,30.20,WSW,247,2.7,4.9,93,0.00,,,0.63,WUHU21623XXSP,2013-01-08 00:20:00,
2013-01-07 16:22:00,50.7,48.7,30.20,SW,225,0.0,4.0,93,0.00,,,0.63,WUHU21623XXSP,2013-01-08 00:22:00,
2013-01-07 16:23:00,50.7,48.7,30.20,SW,225,1.8,4.0,93,0.00,,,0.63,WUHU21623XXSP,2013-01-08 00:23:00,
2013-01-07 16:25:00,50.7,48.7,30.19,WSW,247,0.0,4.0,93,0.00,,,0.63,WUHU21623XXSP,2013-01-08 00:25:00,
2013-01-07 16:27:00,50.7,48.7,30.19,West,270,0.0,4.0,93,0.00,,,0.63,WUHU21623XXSP,2013-01-08 00:27:00,
2013-01-07 16:28:00,50.7,48.7,30.19,WSW,247,0.0,4.0,93,0.00,,,0.63,WUHU21623XXSP,2013-01-08 00:28:00,
2013-01-07 16:29:00,50.7,48.7,30.19,WSW,247,0.0,4.0,93,0.00,,,0.63,WUHU21623XXSP,2013-01-08 00:29:00,
2013-01-07 16:30:00,50.7,48.7,30.19,West,270,0.0,4.0,93,0.00,,,0.63,WUHU21623XXSP,2013-01-08 00:30:00,
2013-01-07 16:33:00,50.5,48.5,30.20,SW,225,1.3,4.0,93,0.00,,,0.63,WUHU21623XXSP,2013-01-08 00:33:00,
2013-01-07 16:34:00,50.5,48.5,30.20,WSW,247,0.0,4.0,93,0.00,,,0.63,WUHU21623XXSP,2013-01-08 00:34:00,
2013-01-07 16:35:00,50.5,48.5,30.19,WSW,247,0.0,4.0,93,0.00,,,0.63,WUHU21623XXSP,2013-01-08 00:35:00,
2013-01-07 16:38:00,50.5,48.5,30.20,WSW,247,0.0,2.7,93,0.00,,,0.63,WUHU21623XXSP,2013-01-08 00:38:00,
2013-01-07 16:39:00,50.5,48.5,30.20,WSW,247,1.3,2.7,93,0.00,,,0.63,WUHU21623XXSP,2013-01-08 00:39:00,
2013-01-07 16:40:00,50.5,48.5,30.20,WSW,247,0.0,2.7,93,0.00,,,0.63,WUHU21623XXSP,2013-01-08 00:40:00,
2013-01-07 16:43:00,50.5,48.5,30.20,WSW,247,0.0,2.1,93,0.00,,,0.63,WUHU21623XXSP,2013-01-08 00:43:00,
2013-01-07 16:44:00,50.5,48.5,30.19,WSW,247,0.0,2.1,93,0.00,,,0.63,WUHU21623XXSP,2013-01-08 00:44:00,
2013-01-07 16:45:00,50.4,48.3,30.19,WSW,247,0.0,2.1,93,0.00,,,0.63,WUHU21623XXSP,2013-01-08 00:45:00,
2013-01-07 16:48:00,50.5,48.5,30.19,SW,225,0.0,1.3,93,0.00,,,0.63,WUHU21623XXSP,2013-01-08 00:48:00,
2013-01-07 16:49:00,50.4,48.3,30.20,SW,225,0.0,0.0,93,0.00,,,0.63,WUHU21623XXSP,2013-01-08 00:49:00,
2013-01-07 16:51:00,50.4,48.3,30.19,SW,225,0.0,0.0,93,0.00,,,0.63,WUHU21623XXSP,2013-01-08 00:51:00,
2013-01-07 16:53:00,50.4,48.3,30.19,SW,225,0.4,1.6,93,0.00,,,0.63,WUHU21623XXSP,2013-01-08 00:53:00,
2013-01-07 16:54:00,50.4,48.3,30.19,SW,225,0.0,1.6,93,0.00,,,0.63,WUHU21623XXSP,2013-01-08 00:54:00,
2013-01-07 16:56:00,50.4,48.3,30.19,SW,225,0.0,1.6,93,0.00,,,0.63,WUHU21623XXSP,2013-01-08 00:56:00,
2013-01-07 16:59:00,50.4,48.3,30.19,WSW,247,0.0,1.6,93,0.00,,,0.63,WUHU21623XXSP,2013-01-08 00:59:00,
2013-01-07 17:01:00,50.2,48.2,30.18,WSW,247,0.0,1.6,93,0.00,,,0.63,WUHU21623XXSP,2013-01-08 01:01:00,
2013-01-07 17:04:00,50.2,48.2,30.18,WSW,247,0.0,1.3,93,0.00,,,0.63,WUHU21623XXSP,2013-01-08 01:04:00,
2013-01-07 17:06:00,50.2,48.2,30.18,WSW,247,0.0,1.3,93,0.00,,,0.63,WUHU21623XXSP,2013-01-08 01:06:00,
2013-01-07 17:09:00,50.2,48.2,30.18,WSW,247,0.0,0.0,93,0.00,,,0.63,WUHU21623XXSP,2013-01-08 01:09:00,
2013-01-07 17:11:00,50.2,48.2,30.18,SW,225,0.0,1.6,93,0.00,,,0.63,WUHU21623XXSP,2013-01-08 01:11:00,
2013-01-07 17:14:00,50.2,48.2,30.18,SW,225,0.0,1.6,93,0.00,,,0.63,WUHU21623XXSP,2013-01-08 01:14:00,
2013-01-07 17:16:00,50.2,47.9,30.18,SW,225,0.0,1.6,92,0.00,,,0.63,WUHU21623XXSP,2013-01-08 01:16:00,
2013-01-07 17:19:00,50.2,47.9,30.18,SW,225,0.0,1.6,92,0.00,,,0.63,WUHU21623XXSP,2013-01-08 01:19:00,
2013-01-07 17:20:00,50.2,47.9,30.18,SSW,202,0.0,1.6,92,0.00,,,0.63,WUHU21623XXSP,2013-01-08 01:20:00,
2013-01-07 17:21:00,50.2,47.9,30.18,SSW,202,0.0,1.6,92,0.00,,,0.63,WUHU21623XXSP,2013-01-08 01:21:00,
2013-01-07 17:24:00,50.2,47.9,30.19,SSW,202,0.0,1.6,92,0.00,,,0.63,WUHU21623XXSP,2013-01-08 01:24:00,
2013-01-07 17:25:00,50.2,47.9,30.19,SSW,202,0.0,1.6,92,0.00,,,0.63,WUHU21623XXSP,2013-01-08 01:25:00,
2013-01-07 17:26:00,50.2,47.9,30.19,SSW,202,0.0,1.6,92,0.00,,,0.63,WUHU21623XXSP,2013-01-08 01:26:00,
2013-01-07 17:30:00,50.0,47.7,30.19,SW,225,0.0,1.6,92,0.00,,,0.63,WUHU21623XXSP,2013-01-08 01:30:00,
2013-01-07 17:31:00,50.2,47.9,30.19,SW,225,0.0,1.6,92,0.00,,,0.63,WUHU21623XXSP,2013-01-08 01:31:00,
2013-01-07 17:35:00,50.0,47.7,30.19,SW,225,0.0,1.6,92,0.00,,,0.63,WUHU21623XXSP,2013-01-08 01:35:00,
2013-01-07 17:36:00,49.8,47.5,30.19,SW,225,0.0,1.6,92,0.00,,,0.63,WUHU21623XXSP,2013-01-08 01:36:00,
2013-01-07 17:40:00,49.8,47.5,30.19,SW,225,0.0,1.6,92,0.00,,,0.63,WUHU21623XXSP,2013-01-08 01:40:00,
2013-01-07 17:41:00,49.8,47.5,30.19,SW,225,0.0,1.6,92,0.00,,,0.63,WUHU21623XXSP,2013-01-08 01:41:00,
2013-01-07 17:45:00,49.8,47.5,30.20,SW,225,0.0,1.6,92,0.00,,,0.63,WUHU21623XXSP,2013-01-08 01:45:00,
2013-01-07 17:46:00,49.8,47.5,30.20,SW,225,0.0,0.0,92,0.00,,,0.63,WUHU21623XXSP,2013-01-08 01:46:00,
2013-01-07 17:50:00,49.8,47.5,30.20,SW,225,0.0,0.0,92,0.00,,,0.63,WUHU21623XXSP,2013-01-08 01:50:00,
2013-01-07 17:51:00,49.8,47.5,30.20,SW,225,0.0,0.0,92,0.00,,,0.63,WUHU21623XXSP,2013-01-08 01:51:00,
2013-01-07 17:55:00,49.8,47.5,30.21,SW,225,0.0,1.1,92,0.00,,,0.63,WUHU21623XXSP,2013-01-08 01:55:00,
2013-01-07 17:56:00,49.8,47.5,30.21,SW,225,0.0,1.1,92,0.00,,,0.63,WUHU21623XXSP,2013-01-08 01:56:00,
2013-01-07 18:00:00,49.8,47.5,30.21,SW,225,0.4,1.1,92,0.00,,,0.63,WUHU21623XXSP,2013-01-08 02:00:00,
2013-01-07 18:01:00,49.8,47.5,30.21,SW,225,0.0,1.1,92,0.00,,,0.63,WUHU21623XXSP,2013-01-08 02:01:00,
2013-01-07 18:05:00,49.8,47.5,30.20,SW,225,0.0,1.1,92,0.00,,,0.63,WUHU21623XXSP,2013-01-08 02:05:00,
2013-01-07 18:06:00,49.8,47.5,30.20,SW,225,0.0,0.9,92,0.00,,,0.63,WUHU21623XXSP,2013-01-08 02:06:00,
2013-01-07 18:11:00,49.8,47.5,30.20,WSW,247,0.0,0.9,92,0.00,,,0.63,WUHU21623XXSP,2013-01-08 02:11:00,
2013-01-07 18:12:00,49.8,47.5,30.20,WSW,247,0.0,0.9,92,0.00,,,0.63,WUHU21623XXSP,2013-01-08 02:12:00,
2013-01-07 18:16:00,49.8,47.5,30.20,WSW,247,0.0,0.0,92,0.00,,,0.63,WUHU21623XXSP,2013-01-08 02:16:00,
2013-01-07 18:17:00,49.8,47.5,30.19,WSW,247,0.0,0.0,92,0.00,,,0.63,WUHU21623XXSP,2013-01-08 02:17:00,
2013-01-07 18:21:00,49.8,47.5,30.19,WSW,247,0.0,0.0,92,0.00,,,0.63,WUHU21623XXSP,2013-01-08 02:21:00,
2013-01-07 18:22:00,49.8,47.5,30.19,WSW,247,0.0,0.0,92,0.00,,,0.63,WUHU21623XXSP,2013-01-08 02:22:00,
2013-01-07 18:26:00,49.8,47.5,30.19,WSW,247,0.0,0.0,92,0.00,,,0.63,WUHU21623XXSP,2013-01-08 02:26:00,
2013-01-07 18:27:00,49.8,47.5,30.20,WSW,247,0.0,0.0,92,0.00,,,0.63,WUHU21623XXSP,2013-01-08 02:27:00,
2013-01-07 18:31:00,49.8,47.5,30.19,SW,225,0.0,2.0,92,0.00,,,0.63,WUHU21623XXSP,2013-01-08 02:31:00,
2013-01-07 18:32:00,49.8,47.5,30.20,SW,225,0.0,2.0,92,0.00,,,0.63,WUHU21623XXSP,2013-01-08 02:32:00,
2013-01-07 18:36:00,49.8,47.5,30.19,SW,225,0.0,2.0,92,0.00,,,0.63,WUHU21623XXSP,2013-01-08 02:36:00,
2013-01-07 18:37:00,49.6,47.4,30.19,SW,225,0.0,2.0,92,0.00,,,0.63,WUHU21623XXSP,2013-01-08 02:37:00,
2013-01-07 18:41:00,49.6,47.4,30.19,SSE,157,0.0,0.0,92,0.00,,,0.63,WUHU21623XXSP,2013-01-08 02:41:00,
2013-01-07 18:42:00,49.6,47.4,30.19,SSE,157,0.0,0.0,92,0.00,,,0.63,WUHU21623XXSP,2013-01-08 02:42:00,
2013-01-07 18:46:00,49.6,47.4,30.19,SSE,157,0.0,0.9,92,0.00,,,0.63,WUHU21623XXSP,2013-01-08 02:46:00,
2013-01-07 18:47:00,49.6,47.4,30.19,SSE,157,0.0,0.9,92,0.00,,,0.63,WUHU21623XXSP,2013-01-08 02:47:00,
2013-01-07 18:51:00,49.6,47.4,30.18,SSE,157,0.0,0.9,92,0.00,,,0.63,WUHU21623XXSP,2013-01-08 02:51:00,
2013-01-07 18:52:00,49.6,47.4,30.18,SSE,157,0.0,0.9,92,0.00,,,0.63,WUHU21623XXSP,2013-01-08 02:52:00,
2013-01-07 18:56:00,49.6,47.4,30.19,SSE,157,0.0,0.9,92,0.00,,,0.63,WUHU21623XXSP,2013-01-08 02:56:00,
2013-01-07 18:57:00,49.6,47.4,30.19,SSE,157,0.0,0.9,92,0.00,,,0.63,WUHU21623XXSP,2013-01-08 02:57:00,
2013-01-07 19:01:00,49.5,47.2,30.19,SSE,157,0.0,1.3,92,0.00,,,0.63,WUHU21623XXSP,2013-01-08 03:01:00,
2013-01-07 19:02:00,49.5,47.2,30.19,SSE,157,0.0,1.3,92,0.00,,,0.63,WUHU21623XXSP,2013-01-08 03:02:00,
2013-01-07 19:03:00,49.5,47.2,30.19,SSE,157,0.0,1.3,92,0.00,,,0.63,WUHU21623XXSP,2013-01-08 03:03:00,
2013-01-07 19:07:00,49.3,47.0,30.19,SSE,157,0.0,1.3,92,0.00,,,0.63,WUHU21623XXSP,2013-01-08 03:07:00,
2013-01-07 19:08:00,49.3,47.0,30.19,SSE,157,0.0,1.3,92,0.00,,,0.63,WUHU21623XXSP,2013-01-08 03:08:00,
2013-01-07 19:12:00,49.3,47.0,30.19,SSE,157,0.0,1.3,92,0.00,,,0.63,WUHU21623XXSP,2013-01-08 03:12:00,
2013-01-07 19:13:00,49.3,47.0,30.19,SSE,157,0.0,1.3,92,0.00,,,0.63,WUHU21623XXSP,2013-01-08 03:13:00,
2013-01-07 19:17:00,49.3,47.0,30.19,SSE,157,0.0,0.0,92,0.00,,,0.63,WUHU21623XXSP,2013-01-08 03:17:00,
2013-01-07 19:18:00,49.3,47.0,30.19,SSE,157,0.0,0.0,92,0.00,,,0.63,WUHU21623XXSP,2013-01-08 03:18:00,
2013-01-07 19:22:00,49.3,47.0,30.19,SSE,157,0.0,0.0,92,0.00,,,0.63,WUHU21623XXSP,2013-01-08 03:22:00,
2013-01-07 19:23:00,49.3,47.0,30.19,SSE,157,0.0,0.0,92,0.00,,,0.63,WUHU21623XXSP,2013-01-08 03:23:00,
2013-01-07 19:27:00,49.3,47.0,30.18,SSE,157,0.0,0.0,92,0.00,,,0.63,WUHU21623XXSP,2013-01-08 03:27:00,
2013-01-07 19:28:00,49.3,47.0,30.18,SSE,157,0.0,0.0,92,0.00,,,0.63,WUHU21623XXSP,2013-01-08 03:28:00,
2013-01-07 19:32:00,49.3,47.0,30.19,SSE,157,0.0,0.0,92,0.00,,,0.63,WUHU21623XXSP,2013-01-08 03:32:00,
2013-01-07 19:33:00,49.3,47.0,30.18,SSE,157,0.0,0.0,92,0.00,,,0.63,WUHU21623XXSP,2013-01-08 03:33:00,
2013-01-07 19:37:00,49.3,47.0,30.18,SSE,157,0.0,0.0,92,0.00,,,0.63,WUHU21623XXSP,2013-01-08 03:37:00,
2013-01-07 19:38:00,49.3,47.0,30.18,SSE,157,0.0,0.0,92,0.00,,,0.63,WUHU21623XXSP,2013-01-08 03:38:00,
2013-01-07 19:42:00,49.3,47.0,30.18,SSE,157,0.0,0.0,92,0.00,,,0.63,WUHU21623XXSP,2013-01-08 03:42:00,
2013-01-07 19:43:00,49.3,47.0,30.18,SSE,157,0.0,0.0,92,0.00,,,0.63,WUHU21623XXSP,2013-01-08 03:43:00,
2013-01-07 19:47:00,49.3,47.0,30.19,SSE,157,0.0,0.0,92,0.00,,,0.63,WUHU21623XXSP,2013-01-08 03:47:00,
2013-01-07 19:48:00,49.3,47.0,30.19,SSE,157,0.0,0.0,92,0.00,,,0.63,WUHU21623XXSP,2013-01-08 03:48:00,
2013-01-07 19:52:00,49.3,47.0,30.19,SSE,157,0.0,0.0,92,0.00,,,0.63,WUHU21623XXSP,2013-01-08 03:52:00,
2013-01-07 19:53:00,49.3,47.0,30.19,SSE,157,0.0,0.0,92,0.00,,,0.63,WUHU21623XXSP,2013-01-08 03:53:00,
2013-01-07 19:54:00,49.3,47.0,30.19,SSE,157,0.0,0.0,92,0.00,,,0.63,WUHU21623XXSP,2013-01-08 03:54:00,
2013-01-07 19:57:00,49.3,47.0,30.19,SSE,157,0.0,0.0,92,0.00,,,0.63,WUHU21623XXSP,2013-01-08 03:57:00,
2013-01-07 19:58:00,49.3,47.0,30.19,SSE,157,0.0,0.0,92,0.00,,,0.63,WUHU21623XXSP,2013-01-08 03:58:00,
2013-01-07 19:59:00,49.3,47.0,30.19,SSE,157,0.0,0.0,92,0.00,,,0.63,WUHU21623XXSP,2013-01-08 03:59:00,
2013-01-07 20:02:00,49.3,47.0,30.19,SSE,157,0.0,0.0,92,0.00,,,0.63,WUHU21623XXSP,2013-01-08 04:02:00,
2013-01-07 20:04:00,49.3,47.0,30.19,SSE,157,0.0,0.0,92,0.00,,,0.63,WUHU21623XXSP,2013-01-08 04:04:00,
2013-01-07 20:08:00,49.3,47.0,30.19,SSE,157,0.0,0.0,92,0.00,,,0.63,WUHU21623XXSP,2013-01-08 04:08:00,
2013-01-07 20:09:00,49.3,47.0,30.19,SSE,157,0.0,0.0,92,0.00,,,0.63,WUHU21623XXSP,2013-01-08 04:09:00,
2013-01-07 20:13:00,49.3,47.0,30.19,SSE,157,0.0,0.0,92,0.00,,,0.63,WUHU21623XXSP,2013-01-08 04:13:00,
2013-01-07 20:14:00,49.3,47.0,30.19,SSE,157,0.0,0.0,92,0.00,,,0.63,WUHU21623XXSP,2013-01-08 04:14:00,
2013-01-07 20:18:00,49.3,47.0,30.19,SSE,157,0.0,0.0,92,0.00,,,0.63,WUHU21623XXSP,2013-01-08 04:18:00,
2013-01-07 20:19:00,49.3,47.0,30.19,SSE,157,0.0,0.0,92,0.00,,,0.63,WUHU21623XXSP,2013-01-08 04:19:00,
2013-01-07 20:20:00,49.3,47.0,30.19,SSE,157,0.0,0.0,92,0.00,,,0.63,WUHU21623XXSP,2013-01-08 04:20:00,
2013-01-07 20:23:00,49.1,46.9,30.19,SSE,157,0.0,0.0,92,0.00,,,0.63,WUHU21623XXSP,2013-01-08 04:23:00,
2013-01-07 20:24:00,49.3,47.0,30.20,SSE,157,0.0,0.0,92,0.00,,,0.63,WUHU21623XXSP,2013-01-08 04:24:00,
2013-01-07 20:25:00,49.3,47.0,30.20,SSE,157,0.0,0.0,92,0.00,,,0.63,WUHU21623XXSP,2013-01-08 04:25:00,
2013-01-07 20:28:00,49.1,46.9,30.19,SSE,157,0.0,0.0,92,0.00,,,0.63,WUHU21623XXSP,2013-01-08 04:28:00,
2013-01-07 20:30:00,49.1,46.9,30.19,SSE,157,0.0,0.0,92,0.00,,,0.63,WUHU21623XXSP,2013-01-08 04:30:00,
2013-01-07 20:33:00,49.1,46.9,30.19,SSE,157,0.0,0.0,92,0.00,,,0.63,WUHU21623XXSP,2013-01-08 04:33:00,
2013-01-07 20:35:00,49.1,46.9,30.19,SSE,157,0.0,0.0,92,0.00,,,0.63,WUHU21623XXSP,2013-01-08 04:35:00,
2013-01-07 20:36:00,49.1,46.9,30.19,SSE,157,0.0,0.0,92,0.00,,,0.63,WUHU21623XXSP,2013-01-08 04:36:00,
2013-01-07 20:38:00,49.3,47.0,30.19,SSE,157,0.0,0.0,92,0.00,,,0.63,WUHU21623XXSP,2013-01-08 04:38:00,
2013-01-07 20:40:00,49.1,46.9,30.19,SSE,157,0.0,0.0,92,0.00,,,0.63,WUHU21623XXSP,2013-01-08 04:40:00,
2013-01-07 20:41:00,49.1,46.9,30.19,SSE,157,0.0,0.0,92,0.00,,,0.63,WUHU21623XXSP,2013-01-08 04:41:00,
2013-01-07 20:43:00,49.1,46.9,30.19,SSE,157,0.0,0.0,92,0.00,,,0.63,WUHU21623XXSP,2013-01-08 04:43:00,
2013-01-07 20:45:00,49.1,46.9,30.19,SSE,157,0.0,0.0,92,0.00,,,0.63,WUHU21623XXSP,2013-01-08 04:45:00,
2013-01-07 20:46:00,49.1,46.9,30.20,SSE,157,0.0,0.0,92,0.00,,,0.63,WUHU21623XXSP,2013-01-08 04:46:00,
2013-01-07 20:48:00,49.1,46.9,30.20,SSE,157,0.0,0.0,92,0.00,,,0.63,WUHU21623XXSP,2013-01-08 04:48:00,
2013-01-07 20:50:00,49.3,47.0,30.20,SSE,157,0.0,0.0,92,0.00,,,0.63,WUHU21623XXSP,2013-01-08 04:50:00,
2013-01-07 20:51:00,49.1,46.9,30.20,SSE,157,0.0,0.0,92,0.00,,,0.63,WUHU21623XXSP,2013-01-08 04:51:00,
2013-01-07 20:53:00,49.1,46.9,30.20,SSE,157,0.0,0.0,92,0.00,,,0.63,WUHU21623XXSP,2013-01-08 04:53:00,
2013-01-07 20:55:00,49.1,46.9,30.20,SSE,157,0.0,0.0,92,0.00,,,0.63,WUHU21623XXSP,2013-01-08 04:55:00,
2013-01-07 20:56:00,49.1,46.9,30.20,SSE,157,0.0,0.0,92,0.00,,,0.63,WUHU21623XXSP,2013-01-08 04:56:00,
2013-01-07 20:58:00,49.1,46.9,30.20,SSE,157,0.0,0.0,92,0.00,,,0.63,WUHU21623XXSP,2013-01-08 04:58:00,
2013-01-07 21:00:00,49.3,47.0,30.20,WSW,247,0.0,0.0,92,0.00,,,0.63,WUHU21623XXSP,2013-01-08 05:00:00,
2013-01-07 21:01:00,49.1,46.9,30.20,SSW,202,0.0,0.0,92,0.00,,,0.63,WUHU21623XXSP,2013-01-08 05:01:00,
2013-01-07 21:03:00,49.3,47.0,30.20,SSE,157,0.0,0.0,92,0.00,,,0.63,WUHU21623XXSP,2013-01-08 05:03:00,
2013-01-07 21:05:00,49.1,46.9,30.19,SSE,157,0.0,0.0,92,0.00,,,0.63,WUHU21623XXSP,2013-01-08 05:05:00,
2013-01-07 21:06:00,49.3,47.0,30.19,SSE,157,0.0,0.0,92,0.00,,,0.63,WUHU21623XXSP,2013-01-08 05:06:00,
2013-01-07 21:08:00,49.3,47.0,30.19,SSE,157,0.0,0.0,92,0.00,,,0.63,WUHU21623XXSP,2013-01-08 05:08:00,
2013-01-07 21:10:00,49.3,47.0,30.19,SSE,157,0.0,0.0,92,0.00,,,0.63,WUHU21623XXSP,2013-01-08 05:10:00,
2013-01-07 21:11:00,49.3,47.0,30.19,SSE,157,0.0,0.0,92,0.00,,,0.63,WUHU21623XXSP,2013-01-08 05:11:00,
2013-01-07 21:13:00,49.3,47.0,30.20,SSE,157,0.0,0.0,92,0.00,,,0.63,WUHU21623XXSP,2013-01-08 05:13:00,
2013-01-07 21:15:00,49.3,47.0,30.20,SSE,157,0.0,0.0,92,0.00,,,0.63,WUHU21623XXSP,2013-01-08 05:15:00,
2013-01-07 21:16:00,49.3,47.0,30.19,SSE,157,0.0,0.0,92,0.00,,,0.63,WUHU21623XXSP,2013-01-08 05:16:00,
2013-01-07 21:19:00,49.3,47.0,30.19,SSE,157,0.0,0.0,92,0.00,,,0.63,WUHU21623XXSP,2013-01-08 05:19:00,
2013-01-07 21:20:00,49.3,47.0,30.19,SSE,157,0.0,0.0,92,0.00,,,0.63,WUHU21623XXSP,2013-01-08 05:20:00,
2013-01-07 21:21:00,49.3,46.9,30.19,SSE,157,0.0,0.0,92,0.00,,,0.63,WUHU21623XXSP,2013-01-08 05:21:00,
2013-01-07 21:24:00,49.3,47.0,30.19,SSE,157,0.0,0.0,92,0.00,,,0.63,WUHU21623XXSP,2013-01-08 05:24:00,
2013-01-07 21:25:00,49.3,47.0,30.19,SSE,157,0.0,0.0,92,0.00,,,0.63,WUHU21623XXSP,2013-01-08 05:25:00,
2013-01-07 21:26:00,49.3,47.0,30.20,SSE,157,0.0,0.0,92,0.00,,,0.63,WUHU21623XXSP,2013-01-08 05:26:00,
2013-01-07 21:29:00,49.3,47.0,30.20,SW,225,0.0,0.0,92,0.00,,,0.63,WUHU21623XXSP,2013-01-08 05:29:00,
2013-01-07 21:30:00,49.3,47.0,30.20,SW,225,0.0,0.0,92,0.00,,,0.63,WUHU21623XXSP,2013-01-08 05:30:00,
2013-01-07 21:31:00,49.3,47.0,30.20,SW,225,0.0,0.0,92,0.00,,,0.63,WUHU21623XXSP,2013-01-08 05:31:00,
2013-01-07 21:32:00,49.3,47.0,30.20,SW,225,0.0,0.0,92,0.00,,,0.63,WUHU21623XXSP,2013-01-08 05:32:00,
2013-01-07 21:34:00,49.3,47.0,30.20,SW,225,0.0,0.0,92,0.00,,,0.63,WUHU21623XXSP,2013-01-08 05:34:00,
2013-01-07 21:35:00,49.3,47.0,30.19,SW,225,0.0,0.0,92,0.00,,,0.63,WUHU21623XXSP,2013-01-08 05:35:00,
2013-01-07 21:36:00,49.3,47.0,30.19,SW,225,0.0,0.0,92,0.00,,,0.63,WUHU21623XXSP,2013-01-08 05:36:00,
2013-01-07 21:37:00,49.3,47.0,30.20,SW,225,0.0,0.0,92,0.00,,,0.63,WUHU21623XXSP,2013-01-08 05:37:00,
2013-01-07 21:39:00,49.3,47.0,30.20,SW,225,0.0,0.0,92,0.00,,,0.63,WUHU21623XXSP,2013-01-08 05:39:00,
2013-01-07 21:40:00,49.3,47.0,30.19,SW,225,0.0,0.0,92,0.00,,,0.63,WUHU21623XXSP,2013-01-08 05:40:00,
2013-01-07 21:42:00,49.3,47.0,30.19,SSW,202,0.0,0.0,92,0.00,,,0.63,WUHU21623XXSP,2013-01-08 05:42:00,
2013-01-07 21:44:00,49.3,47.0,30.19,SSW,202,0.0,0.0,92,0.00,,,0.63,WUHU21623XXSP,2013-01-08 05:44:00,
2013-01-07 21:45:00,49.3,47.0,30.19,SSW,202,0.0,0.0,92,0.00,,,0.63,WUHU21623XXSP,2013-01-08 05:45:00,
2013-01-07 21:47:00,49.3,47.0,30.20,SSE,157,0.0,1.1,92,0.00,,,0.63,WUHU21623XXSP,2013-01-08 05:47:00,
2013-01-07 21:49:00,49.3,47.0,30.19,SE,135,1.1,1.1,92,0.00,,,0.63,WUHU21623XXSP,2013-01-08 05:49:00,
2013-01-07 21:50:00,49.3,47.0,30.19,SE,135,0.0,1.3,92,0.00,,,0.63,WUHU21623XXSP,2013-01-08 05:50:00,
2013-01-07 21:52:00,49.3,47.0,30.20,SE,135,0.0,1.3,92,0.00,,,0.63,WUHU21623XXSP,2013-01-08 05:52:00,
2013-01-07 21:54:00,49.3,47.0,30.20,WNW,292,1.2,2.2,92,0.00,,,0.63,WUHU21623XXSP,2013-01-08 05:54:00,
2013-01-07 21:56:00,49.3,47.0,30.19,South,180,0.0,2.2,92,0.00,,,0.63,WUHU21623XXSP,2013-01-08 05:56:00,
2013-01-07 21:57:00,49.3,47.0,30.19,South,180,0.0,2.2,92,0.00,,,0.63,WUHU21623XXSP,2013-01-08 05:57:00,
2013-01-07 22:00:00,49.3,47.0,30.20,South,180,0.0,2.2,92,0.00,,,0.63,WUHU21623XXSP,2013-01-08 06:00:00,
2013-01-07 22:01:00,49.3,47.0,30.20,South,180,0.0,2.2,92,0.00,,,0.63,WUHU21623XXSP,2013-01-08 06:01:00,
2013-01-07 22:02:00,49.3,47.0,30.20,South,180,0.0,2.2,92,0.00,,,0.63,WUHU21623XXSP,2013-01-08 06:02:00,
2013-01-07 22:05:00,49.3,47.0,30.20,South,180,0.0,1.2,92,0.00,,,0.63,WUHU21623XXSP,2013-01-08 06:05:00,
2013-01-07 22:06:00,49.3,47.0,30.20,South,180,0.0,1.2,92,0.00,,,0.63,WUHU21623XXSP,2013-01-08 06:06:00,
2013-01-07 22:07:00,49.3,47.0,30.20,South,180,0.0,1.2,92,0.00,,,0.63,WUHU21623XXSP,2013-01-08 06:07:00,
2013-01-07 22:08:00,49.3,47.0,30.19,South,180,0.0,1.2,92,0.00,,,0.63,WUHU21623XXSP,2013-01-08 06:08:00,
2013-01-07 22:10:00,49.3,47.0,30.19,South,180,0.0,1.2,92,0.00,,,0.63,WUHU21623XXSP,2013-01-08 06:10:00,
2013-01-07 22:11:00,49.3,47.0,30.19,SSE,157,0.0,1.2,92,0.00,,,0.63,WUHU21623XXSP,2013-01-08 06:11:00,
2013-01-07 22:12:00,49.3,47.0,30.19,SSE,157,0.0,1.2,92,0.00,,,0.63,WUHU21623XXSP,2013-01-08 06:12:00,
2013-01-07 22:13:00,49.3,47.0,30.19,SSE,157,0.0,1.2,92,0.00,,,0.63,WUHU21623XXSP,2013-01-08 06:13:00,
2013-01-07 22:15:00,49.3,47.0,30.19,SSE,157,0.0,1.2,92,0.00,,,0.63,WUHU21623XXSP,2013-01-08 06:15:00,
2013-01-07 22:16:00,49.3,47.0,30.19,SSE,157,0.0,1.2,92,0.00,,,0.63,WUHU21623XXSP,2013-01-08 06:16:00,
2013-01-07 22:17:00,49.3,47.0,30.19,SSE,157,0.0,0.0,92,0.00,,,0.63,WUHU21623XXSP,2013-01-08 06:17:00,
2013-01-07 22:18:00,49.3,47.0,30.19,SSE,157,0.0,0.0,92,0.00,,,0.63,WUHU21623XXSP,2013-01-08 06:18:00,
2013-01-07 22:20:00,49.3,47.0,30.19,SSE,157,0.0,0.0,92,0.00,,,0.63,WUHU21623XXSP,2013-01-08 06:20:00,
2013-01-07 22:21:00,49.3,47.0,30.19,SSE,157,0.0,0.0,92,0.00,,,0.63,WUHU21623XXSP,2013-01-08 06:21:00,
2013-01-07 22:22:00,49.3,47.0,30.19,SSE,157,0.0,0.0,92,0.00,,,0.63,WUHU21623XXSP,2013-01-08 06:22:00,
2013-01-07 22:23:00,49.3,47.0,30.19,SSE,157,0.0,0.0,92,0.00,,,0.63,WUHU21623XXSP,2013-01-08 06:23:00,
2013-01-07 22:25:00,49.3,47.0,30.19,SSE,157,0.0,0.0,92,0.00,,,0.63,WUHU21623XXSP,2013-01-08 06:25:00,
2013-01-07 22:26:00,49.3,47.0,30.19,SSE,157,0.0,0.0,92,0.00,,,0.63,WUHU21623XXSP,2013-01-08 06:26:00,
2013-01-07 22:27:00,49.3,47.0,30.19,SSE,157,0.0,0.0,92,0.00,,,0.63,WUHU21623XXSP,2013-01-08 06:27:00,
2013-01-07 22:28:00,49.3,47.0,30.19,SSE,157,0.0,0.0,92,0.00,,,0.63,WUHU21623XXSP,2013-01-08 06:28:00,
2013-01-07 22:30:00,49.3,47.0,30.20,SSE,157,0.0,0.0,92,0.00,,,0.63,WUHU21623XXSP,2013-01-08 06:30:00,
2013-01-07 22:31:00,49.3,47.0,30.19,SSE,157,0.0,0.0,92,0.00,,,0.63,WUHU21623XXSP,2013-01-08 06:31:00,
2013-01-07 22:33:00,49.3,47.0,30.19,SSE,157,0.0,0.0,92,0.00,,,0.63,WUHU21623XXSP,2013-01-08 06:33:00,
2013-01-07 22:35:00,49.3,47.0,30.19,SSE,157,0.0,0.0,92,0.00,,,0.63,WUHU21623XXSP,2013-01-08 06:35:00,
2013-01-07 22:37:00,49.3,47.0,30.19,SSE,157,0.0,0.0,92,0.00,,,0.63,WUHU21623XXSP,2013-01-08 06:37:00,
2013-01-07 22:38:00,49.3,47.0,30.19,SSE,157,0.0,0.0,92,0.00,,,0.63,WUHU21623XXSP,2013-01-08 06:38:00,
2013-01-07 22:39:00,49.3,47.0,30.19,SSE,157,0.0,0.0,92,0.00,,,0.63,WUHU21623XXSP,2013-01-08 06:39:00,
2013-01-07 22:40:00,49.3,47.0,30.19,SSE,157,0.0,0.0,92,0.00,,,0.63,WUHU21623XXSP,2013-01-08 06:40:00,
2013-01-07 22:42:00,49.3,47.0,30.19,SSE,157,0.0,0.0,92,0.00,,,0.63,WUHU21623XXSP,2013-01-08 06:42:00,
2013-01-07 22:43:00,49.1,46.9,30.19,SSE,157,0.0,0.0,92,0.00,,,0.63,WUHU21623XXSP,2013-01-08 06:43:00,
2013-01-07 22:44:00,49.3,47.0,30.19,SSE,157,0.0,0.0,92,0.00,,,0.63,WUHU21623XXSP,2013-01-08 06:44:00,
2013-01-07 22:45:00,49.3,47.0,30.19,SSE,157,0.0,0.0,92,0.00,,,0.63,WUHU21623XXSP,2013-01-08 06:45:00,
2013-01-07 22:47:00,49.1,46.9,30.19,SSE,157,0.0,1.1,92,0.00,,,0.63,WUHU21623XXSP,2013-01-08 06:47:00,
2013-01-07 22:48:00,49.3,47.0,30.19,SSE,157,0.0,1.1,92,0.00,,,0.63,WUHU21623XXSP,2013-01-08 06:48:00,
2013-01-07 22:49:00,49.3,47.0,30.20,SSE,157,0.0,1.1,92,0.00,,,0.63,WUHU21623XXSP,2013-01-08 06:49:00,
2013-01-07 22:50:00,49.3,47.0,30.20,SSE,157,0.0,1.1,92,0.00,,,0.63,WUHU21623XXSP,2013-01-08 06:50:00,
2013-01-07 22:52:00,49.1,46.9,30.20,SSE,157,0.0,1.1,92,0.00,,,0.63,WUHU21623XXSP,2013-01-08 06:52:00,
2013-01-07 22:53:00,49.1,46.9,30.20,WSW,247,0.0,1.6,92,0.00,,,0.63,WUHU21623XXSP,2013-01-08 06:53:00,
2013-01-07 22:54:00,49.1,46.9,30.19,SE,135,0.0,1.6,92,0.00,,,0.63,WUHU21623XXSP,2013-01-08 06:54:00,
2013-01-07 22:56:00,49.1,46.9,30.20,SE,135,0.0,1.6,92,0.00,,,0.63,WUHU21623XXSP,2013-01-08 06:56:00,
2013-01-07 22:57:00,49.3,47.0,30.19,SSE,157,0.0,1.6,92,0.00,,,0.63,WUHU21623XXSP,2013-01-08 06:57:00,
2013-01-07 22:58:00,49.1,46.9,30.19,South,180,0.0,3.4,92,0.00,,,0.63,WUHU21623XXSP,2013-01-08 06:58:00,
2013-01-07 22:59:00,49.1,46.9,30.19,South,180,0.0,3.4,92,0.00,,,0.63,WUHU21623XXSP,2013-01-08 06:59:00,
2013-01-07 23:01:00,49.1,46.9,30.19,SE,135,0.0,3.4,92,0.00,,,0.63,WUHU21623XXSP,2013-01-08 07:01:00,
2013-01-07 23:02:00,49.1,46.9,30.19,SE,135,0.0,3.4,92,0.00,,,0.63,WUHU21623XXSP,2013-01-08 07:02:00,
2013-01-07 23:03:00,49.1,46.9,30.19,SE,135,0.0,3.4,92,0.00,,,0.63,WUHU21623XXSP,2013-01-08 07:03:00,
2013-01-07 23:04:00,49.1,46.9,30.19,SE,135,0.0,3.4,92,0.00,,,0.63,WUHU21623XXSP,2013-01-08 07:04:00,
2013-01-07 23:06:00,49.1,46.9,30.19,SSE,157,0.0,4.9,92,0.00,,,0.63,WUHU21623XXSP,2013-01-08 07:06:00,
2013-01-07 23:08:00,49.1,46.9,30.19,SSE,157,0.0,4.9,92,0.00,,,0.63,WUHU21623XXSP,2013-01-08 07:08:00,
2013-01-07 23:09:00,49.1,46.9,30.19,SSE,157,0.0,4.9,92,0.00,,,0.63,WUHU21623XXSP,2013-01-08 07:09:00,
2013-01-07 23:11:00,49.1,46.9,30.19,SE,135,0.0,4.9,92,0.00,,,0.63,WUHU21623XXSP,2013-01-08 07:11:00,
2013-01-07 23:13:00,49.1,46.9,30.19,SE,135,1.3,4.9,92,0.00,,,0.63,WUHU21623XXSP,2013-01-08 07:13:00,
2013-01-07 23:14:00,49.1,46.9,30.19,South,180,0.9,4.9,92,0.00,,,0.63,WUHU21623XXSP,2013-01-08 07:14:00,
2013-01-07 23:16:00,49.1,46.9,30.19,South,180,0.0,2.9,92,0.00,,,0.63,WUHU21623XXSP,2013-01-08 07:16:00,
2013-01-07 23:18:00,49.1,46.9,30.19,South,180,0.0,2.9,92,0.00,,,0.63,WUHU21623XXSP,2013-01-08 07:18:00,
2013-01-07 23:19:00,49.1,46.9,30.19,South,180,0.0,2.9,92,0.00,,,0.63,WUHU21623XXSP,2013-01-08 07:19:00,
2013-01-07 23:20:00,49.1,46.9,30.19,South,180,0.0,2.9,92,0.00,,,0.63,WUHU21623XXSP,2013-01-08 07:20:00,
2013-01-07 23:21:00,49.1,46.9,30.19,SSE,157,0.0,2.9,92,0.00,,,0.63,WUHU21623XXSP,2013-01-08 07:21:00,
2013-01-07 23:23:00,49.1,46.9,30.19,SSE,157,0.0,2.9,92,0.00,,,0.63,WUHU21623XXSP,2013-01-08 07:23:00,
2013-01-07 23:24:00,49.1,46.9,30.19,SSE,157,0.0,2.2,92,0.00,,,0.63,WUHU21623XXSP,2013-01-08 07:24:00,
2013-01-07 23:25:00,49.1,46.9,30.19,SSE,157,0.0,2.2,92,0.00,,,0.63,WUHU21623XXSP,2013-01-08 07:25:00,
2013-01-07 23:26:00,49.1,46.9,30.19,SSE,157,0.0,2.2,92,0.00,,,0.63,WUHU21623XXSP,2013-01-08 07:26:00,
2013-01-07 23:28:00,49.1,46.9,30.19,SSE,157,0.0,2.2,92,0.00,,,0.63,WUHU21623XXSP,2013-01-08 07:28:00,
2013-01-07 23:29:00,49.1,46.9,30.20,SSE,157,0.0,2.2,92,0.00,,,0.63,WUHU21623XXSP,2013-01-08 07:29:00,
2013-01-07 23:30:00,48.9,46.7,30.20,SSE,157,0.0,2.2,92,0.00,,,0.63,WUHU21623XXSP,2013-01-08 07:30:00,
2013-01-07 23:31:00,49.1,46.9,30.20,SSE,157,0.0,2.2,92,0.00,,,0.63,WUHU21623XXSP,2013-01-08 07:31:00,
2013-01-07 23:33:00,49.1,46.9,30.19,SSE,157,0.0,2.2,92,0.00,,,0.63,WUHU21623XXSP,2013-01-08 07:33:00,
2013-01-07 23:34:00,49.1,46.9,30.19,SSE,157,0.0,0.9,92,0.00,,,0.63,WUHU21623XXSP,2013-01-08 07:34:00,
2013-01-07 23:35:00,48.9,46.7,30.20,SSE,157,0.0,0.9,92,0.00,,,0.63,WUHU21623XXSP,2013-01-08 07:35:00,
2013-01-07 23:36:00,48.9,46.7,30.20,SSE,157,0.0,0.9,92,0.00,,,0.63,WUHU21623XXSP,2013-01-08 07:36:00,
2013-01-07 23:38:00,48.9,46.7,30.20,SSE,157,0.0,0.9,92,0.00,,,0.63,WUHU21623XXSP,2013-01-08 07:38:00,
2013-01-07 23:39:00,48.9,46.7,30.20,SSE,157,0.0,0.0,92,0.00,,,0.63,WUHU21623XXSP,2013-01-08 07:39:00,
2013-01-07 23:40:00,48.9,46.7,30.20,SSE,157,0.0,0.0,92,0.00,,,0.63,WUHU21623XXSP,2013-01-08 07:40:00,
2013-01-07 23:41:00,48.9,46.7,30.19,SSE,157,0.0,0.0,92,0.00,,,0.63,WUHU21623XXSP,2013-01-08 07:41:00,
2013-01-07 23:43:00,48.9,46.7,30.20,SSE,157,0.0,0.0,92,0.00,,,0.63,WUHU21623XXSP,2013-01-08 07:43:00,
2013-01-07 23:44:00,48.9,46.7,30.20,SSE,157,0.0,0.0,92,0.00,,,0.63,WUHU21623XXSP,2013-01-08 07:44:00,
2013-01-07 23:45:00,48.9,46.7,30.19,SSE,157,0.0,0.9,92,0.00,,,0.63,WUHU21623XXSP,2013-01-08 07:45:00,
2013-01-07 23:46:00,48.9,46.7,30.20,SSE,157,0.0,0.9,92,0.00,,,0.63,WUHU21623XXSP,2013-01-08 07:46:00,
2013-01-07 23:48:00,48.9,46.7,30.20,SSE,157,0.0,0.9,92,0.00,,,0.63,WUHU21623XXSP,2013-01-08 07:48:00,
2013-01-07 23:50:00,48.9,46.7,30.19,SSE,157,0.0,0.9,92,0.00,,,0.63,WUHU21623XXSP,2013-01-08 07:50:00,
2013-01-07 23:51:00,48.9,46.7,30.20,SSE,157,0.0,0.9,92,0.00,,,0.63,WUHU21623XXSP,2013-01-08 07:51:00,
2013-01-07 23:53:00,48.9,46.7,30.20,South,180,0.0,0.9,92,0.00,,,0.63,WUHU21623XXSP,2013-01-08 07:53:00,
2013-01-07 23:55:00,48.9,46.7,30.20,South,180,0.0,0.0,92,0.00,,,0.63,WUHU21623XXSP,2013-01-08 07:55:00,
2013-01-07 23:56:00,48.9,46.7,30.19,South,180,0.0,0.0,92,0.00,,,0.63,WUHU21623XXSP,2013-01-08 07:56:00,
2013-01-07 23:57:00,48.9,46.7,30.19,South,180,0.0,0.0,92,0.00,,,0.63,WUHU21623XXSP,2013-01-08 07:57:00,
2013-01-07 23:58:00,48.9,46.7,30.19,South,180,0.0,0.0,92,0.00,,,0.63,WUHU21623XXSP,2013-01-08 07:58:00,